<?xml version="1.0" encoding="UTF-8" standalone="no" ?>
<gpx xmlns="http://www.topografix.com/GPX/1/1" xmlns:xsi="http://www.w3.org/2001/XMLSchema-instance" xsi:schemaLocation="http://www.topografix.com/GPX/1/1 http://www.topografix.com/GPX/1/1/gpx.xsd" version="1.1" creator="VisuGPX - https://www.visugpx.com">
  <metadata>
    <name>Gérardmer (Pépinière des Xettes) - Liézey (variante)</name>
    <desc><![CDATA[Des tas de variantes sont possibles pour ce classique car entre la Pépinière des Xettes et Liézey il y a 5 routes/chemins. Tous peu fréquentés dès qu'on s'éloigne un peu de la Pépinière des Xettes.
Durée : 2h30 environ quelle que soit la variante
Possibilité de restauration à Liézey : auberge relais des bûcherons (sur la balade) et l'auberge de Liézey (sur le haut de Saucéfaing - détour de 500m).]]></desc>
  </metadata>
  <trk>
    <name><![CDATA[Gérardmer (Pépinière des Xettes) - Liézey (variante)_1]]></name>
    <trkseg>
      <trkpt lat="48.08488" lon="6.85524">
        <ele>894.94</ele>
        <time>2020-12-21T13:49:04.000Z</time>
      </trkpt>
      <trkpt lat="48.08482" lon="6.85521">
        <ele>895</ele>
        <time>2020-12-21T13:49:14.000Z</time>
      </trkpt>
      <trkpt lat="48.08482" lon="6.8551">
        <ele>893</ele>
        <time>2020-12-21T13:49:25.000Z</time>
      </trkpt>
      <trkpt lat="48.08488" lon="6.8551">
        <ele>895.75</ele>
        <time>2020-12-21T13:49:35.000Z</time>
      </trkpt>
      <trkpt lat="48.08487" lon="6.85504">
        <ele>897</ele>
        <time>2020-12-21T13:49:45.000Z</time>
      </trkpt>
      <trkpt lat="48.08488" lon="6.855">
        <ele>897</ele>
        <time>2020-12-21T13:49:55.000Z</time>
      </trkpt>
      <trkpt lat="48.08485" lon="6.85498">
        <ele>898</ele>
        <time>2020-12-21T13:50:05.000Z</time>
      </trkpt>
      <trkpt lat="48.08485" lon="6.855">
        <ele>898</ele>
        <time>2020-12-21T13:50:16.000Z</time>
      </trkpt>
      <trkpt lat="48.08487" lon="6.85503">
        <ele>897</ele>
        <time>2020-12-21T13:50:26.000Z</time>
      </trkpt>
      <trkpt lat="48.08486" lon="6.85503">
        <ele>896.25</ele>
        <time>2020-12-21T13:50:41.000Z</time>
      </trkpt>
      <trkpt lat="48.08502" lon="6.85477">
        <ele>830.5</ele>
        <time>2020-12-21T13:50:51.000Z</time>
      </trkpt>
      <trkpt lat="48.08499" lon="6.85467">
        <ele>860.78</ele>
        <time>2020-12-21T13:51:03.000Z</time>
      </trkpt>
      <trkpt lat="48.08483" lon="6.85514">
        <ele>896.93</ele>
        <time>2020-12-21T13:51:13.000Z</time>
      </trkpt>
      <trkpt lat="48.08486" lon="6.85519">
        <ele>893.94</ele>
        <time>2020-12-21T13:51:23.000Z</time>
      </trkpt>
      <trkpt lat="48.08487" lon="6.85518">
        <ele>896.47</ele>
        <time>2020-12-21T13:51:33.000Z</time>
      </trkpt>
      <trkpt lat="48.08487" lon="6.8552">
        <ele>898</ele>
        <time>2020-12-21T13:51:42.000Z</time>
        <extensions>
          <visugpx:TrkExtension xmlns:visugpx="https://www.visugpx.com/editgpx/">
            <visugpx:node>1</visugpx:node>
            </visugpx:TrkExtension>
        </extensions>
      </trkpt>
      <trkpt lat="48.08476" lon="6.85548">
        <ele>910.1</ele>
      </trkpt>
      <trkpt lat="48.08473" lon="6.85541">
        <ele>910.4</ele>
        <extensions>
          <visugpx:TrkExtension xmlns:visugpx="https://www.visugpx.com/editgpx/">
            <visugpx:node>2</visugpx:node>
            </visugpx:TrkExtension>
        </extensions>
      </trkpt>
      <trkpt lat="48.08464" lon="6.8552">
        <ele>912.2</ele>
      </trkpt>
      <trkpt lat="48.08455" lon="6.85494">
        <ele>914.9</ele>
      </trkpt>
      <trkpt lat="48.08431" lon="6.85382">
        <ele>919.7</ele>
        <extensions>
          <visugpx:TrkExtension xmlns:visugpx="https://www.visugpx.com/editgpx/">
            <visugpx:node>3</visugpx:node>
            </visugpx:TrkExtension>
        </extensions>
      </trkpt>
      <trkpt lat="48.08428" lon="6.85368">
        <ele>919.4</ele>
      </trkpt>
      <trkpt lat="48.0842" lon="6.85313">
        <ele>918.1</ele>
      </trkpt>
      <trkpt lat="48.08418" lon="6.85305">
        <ele>918.1</ele>
      </trkpt>
      <trkpt lat="48.08418" lon="6.85275">
        <ele>917.4</ele>
      </trkpt>
      <trkpt lat="48.08424" lon="6.85245">
        <ele>915.8</ele>
      </trkpt>
      <trkpt lat="48.08439" lon="6.85215">
        <ele>913.2</ele>
      </trkpt>
      <trkpt lat="48.08442" lon="6.85207">
        <ele>912.7</ele>
      </trkpt>
      <trkpt lat="48.08449" lon="6.85192">
        <ele>911.6</ele>
      </trkpt>
      <trkpt lat="48.08456" lon="6.85144">
        <ele>910.1</ele>
      </trkpt>
      <trkpt lat="48.08458" lon="6.85105">
        <ele>909.3</ele>
      </trkpt>
      <trkpt lat="48.08458" lon="6.85094">
        <ele>909.2</ele>
      </trkpt>
      <trkpt lat="48.08494" lon="6.85069">
        <ele>970</ele>
        <time>2020-12-21T11:27:47.000Z</time>
      </trkpt>
      <trkpt lat="48.08494" lon="6.85069">
        <ele>970</ele>
        <time>2020-12-21T11:27:47.000Z</time>
      </trkpt>
      <trkpt lat="48.08465" lon="6.85079">
        <ele>932.01</ele>
        <time>2020-12-21T11:27:57.000Z</time>
      </trkpt>
      <trkpt lat="48.08455" lon="6.85085">
        <ele>916.13</ele>
        <time>2020-12-21T11:28:07.000Z</time>
      </trkpt>
      <trkpt lat="48.08458" lon="6.85088">
        <ele>913.01</ele>
        <time>2020-12-21T11:28:17.000Z</time>
      </trkpt>
      <trkpt lat="48.08458" lon="6.85085">
        <ele>908.57</ele>
        <time>2020-12-21T11:28:27.000Z</time>
      </trkpt>
      <trkpt lat="48.08459" lon="6.85083">
        <ele>907</ele>
        <time>2020-12-21T11:28:38.000Z</time>
      </trkpt>
      <trkpt lat="48.08458" lon="6.85081">
        <ele>906</ele>
        <time>2020-12-21T11:28:48.000Z</time>
      </trkpt>
      <trkpt lat="48.08453" lon="6.8508">
        <ele>901.08</ele>
        <time>2020-12-21T11:28:58.000Z</time>
      </trkpt>
      <trkpt lat="48.08455" lon="6.85081">
        <ele>900.99</ele>
        <time>2020-12-21T11:29:09.000Z</time>
      </trkpt>
      <trkpt lat="48.0846" lon="6.85069">
        <ele>891.33</ele>
        <time>2020-12-21T11:29:19.000Z</time>
      </trkpt>
      <trkpt lat="48.08462" lon="6.85057">
        <ele>891.75</ele>
        <time>2020-12-21T11:29:28.776Z</time>
      </trkpt>
      <trkpt lat="48.08461" lon="6.85046">
        <ele>891.96</ele>
        <time>2020-12-21T11:29:38.000Z</time>
      </trkpt>
      <trkpt lat="48.08454" lon="6.85041">
        <ele>892</ele>
        <time>2020-12-21T11:29:47.239Z</time>
      </trkpt>
      <trkpt lat="48.08461" lon="6.8502">
        <ele>892.94</ele>
        <time>2020-12-21T11:29:57.000Z</time>
      </trkpt>
      <trkpt lat="48.0845" lon="6.85012">
        <ele>886</ele>
        <time>2020-12-21T11:30:08.000Z</time>
      </trkpt>
      <trkpt lat="48.0845" lon="6.85">
        <ele>888.75</ele>
        <time>2020-12-21T11:30:17.659Z</time>
      </trkpt>
      <trkpt lat="48.08451" lon="6.84977">
        <ele>889.75</ele>
        <time>2020-12-21T11:30:27.000Z</time>
      </trkpt>
      <trkpt lat="48.08462" lon="6.84952">
        <ele>889</ele>
        <time>2020-12-21T11:30:37.000Z</time>
      </trkpt>
      <trkpt lat="48.08462" lon="6.84933">
        <ele>890</ele>
        <time>2020-12-21T11:30:47.081Z</time>
      </trkpt>
      <trkpt lat="48.08465" lon="6.84917">
        <ele>891</ele>
        <time>2020-12-21T11:30:58.000Z</time>
      </trkpt>
      <trkpt lat="48.08466" lon="6.849">
        <ele>892</ele>
        <time>2020-12-21T11:31:08.000Z</time>
      </trkpt>
      <trkpt lat="48.0847" lon="6.84882">
        <ele>891.94</ele>
        <time>2020-12-21T11:31:18.000Z</time>
      </trkpt>
      <trkpt lat="48.0847" lon="6.84869">
        <ele>891</ele>
        <time>2020-12-21T11:31:28.000Z</time>
      </trkpt>
      <trkpt lat="48.08465" lon="6.84852">
        <ele>890.01</ele>
        <time>2020-12-21T11:31:37.087Z</time>
      </trkpt>
      <trkpt lat="48.08461" lon="6.84837">
        <ele>889</ele>
        <time>2020-12-21T11:31:47.000Z</time>
      </trkpt>
      <trkpt lat="48.0846" lon="6.84826">
        <ele>888</ele>
        <time>2020-12-21T11:31:57.000Z</time>
      </trkpt>
      <trkpt lat="48.08459" lon="6.84809">
        <ele>889</ele>
        <time>2020-12-21T11:32:07.000Z</time>
      </trkpt>
      <trkpt lat="48.08456" lon="6.84793">
        <ele>888</ele>
        <time>2020-12-21T11:32:16.064Z</time>
      </trkpt>
      <trkpt lat="48.08461" lon="6.84777">
        <ele>887.75</ele>
        <time>2020-12-21T11:32:25.868Z</time>
      </trkpt>
      <trkpt lat="48.08459" lon="6.84761">
        <ele>889</ele>
        <time>2020-12-21T11:32:35.000Z</time>
      </trkpt>
      <trkpt lat="48.08453" lon="6.84743">
        <ele>888</ele>
        <time>2020-12-21T11:32:45.000Z</time>
      </trkpt>
      <trkpt lat="48.08452" lon="6.84727">
        <ele>886</ele>
        <time>2020-12-21T11:32:54.494Z</time>
      </trkpt>
      <trkpt lat="48.08451" lon="6.84711">
        <ele>884</ele>
        <time>2020-12-21T11:33:04.000Z</time>
      </trkpt>
      <trkpt lat="48.08453" lon="6.84693">
        <ele>884</ele>
        <time>2020-12-21T11:33:14.000Z</time>
      </trkpt>
      <trkpt lat="48.08454" lon="6.84675">
        <ele>886.88</ele>
        <time>2020-12-21T11:33:24.000Z</time>
      </trkpt>
      <trkpt lat="48.08459" lon="6.84661">
        <ele>888.75</ele>
        <time>2020-12-21T11:33:33.082Z</time>
      </trkpt>
      <trkpt lat="48.08461" lon="6.84644">
        <ele>885.02</ele>
        <time>2020-12-21T11:33:43.122Z</time>
      </trkpt>
      <trkpt lat="48.08467" lon="6.84627">
        <ele>885.75</ele>
        <time>2020-12-21T11:33:53.000Z</time>
      </trkpt>
      <trkpt lat="48.08472" lon="6.84612">
        <ele>885.24</ele>
        <time>2020-12-21T11:34:03.000Z</time>
      </trkpt>
      <trkpt lat="48.08475" lon="6.84597">
        <ele>885</ele>
        <time>2020-12-21T11:34:13.000Z</time>
      </trkpt>
      <trkpt lat="48.0848" lon="6.84582">
        <ele>885</ele>
        <time>2020-12-21T11:34:23.000Z</time>
      </trkpt>
      <trkpt lat="48.08489" lon="6.84567">
        <ele>885</ele>
        <time>2020-12-21T11:34:32.071Z</time>
      </trkpt>
      <trkpt lat="48.08496" lon="6.84555">
        <ele>886.75</ele>
        <time>2020-12-21T11:34:42.000Z</time>
      </trkpt>
      <trkpt lat="48.08502" lon="6.84539">
        <ele>887.02</ele>
        <time>2020-12-21T11:34:52.000Z</time>
      </trkpt>
      <trkpt lat="48.08504" lon="6.84521">
        <ele>888</ele>
        <time>2020-12-21T11:35:02.000Z</time>
      </trkpt>
      <trkpt lat="48.08499" lon="6.84512">
        <ele>887.76</ele>
        <time>2020-12-21T11:35:11.607Z</time>
      </trkpt>
      <trkpt lat="48.08496" lon="6.84504">
        <ele>886.01</ele>
        <time>2020-12-21T11:35:21.000Z</time>
      </trkpt>
      <trkpt lat="48.08502" lon="6.84488">
        <ele>886.94</ele>
        <time>2020-12-21T11:35:31.000Z</time>
      </trkpt>
      <trkpt lat="48.08512" lon="6.84474">
        <ele>887</ele>
        <time>2020-12-21T11:35:42.000Z</time>
      </trkpt>
      <trkpt lat="48.08521" lon="6.84462">
        <ele>889.99</ele>
        <time>2020-12-21T11:35:52.000Z</time>
      </trkpt>
      <trkpt lat="48.08526" lon="6.84443">
        <ele>890</ele>
        <time>2020-12-21T11:36:01.200Z</time>
      </trkpt>
      <trkpt lat="48.08524" lon="6.84428">
        <ele>890.76</ele>
        <time>2020-12-21T11:36:11.000Z</time>
      </trkpt>
      <trkpt lat="48.08531" lon="6.84413">
        <ele>890.25</ele>
        <time>2020-12-21T11:36:21.000Z</time>
      </trkpt>
      <trkpt lat="48.08537" lon="6.84398">
        <ele>889.26</ele>
        <time>2020-12-21T11:36:30.626Z</time>
      </trkpt>
      <trkpt lat="48.08541" lon="6.84385">
        <ele>889.01</ele>
        <time>2020-12-21T11:36:40.000Z</time>
      </trkpt>
      <trkpt lat="48.08544" lon="6.84385">
        <ele>888.01</ele>
        <time>2020-12-21T11:36:50.001Z</time>
      </trkpt>
      <trkpt lat="48.08539" lon="6.8436">
        <ele>881.01</ele>
        <time>2020-12-21T11:36:59.459Z</time>
      </trkpt>
      <trkpt lat="48.0854" lon="6.84347">
        <ele>884.01</ele>
        <time>2020-12-21T11:37:09.072Z</time>
      </trkpt>
      <trkpt lat="48.08547" lon="6.84338">
        <ele>885.94</ele>
        <time>2020-12-21T11:37:18.170Z</time>
      </trkpt>
      <trkpt lat="48.08552" lon="6.84324">
        <ele>886.01</ele>
        <time>2020-12-21T11:37:28.192Z</time>
      </trkpt>
      <trkpt lat="48.08551" lon="6.84305">
        <ele>886.01</ele>
        <time>2020-12-21T11:37:38.072Z</time>
      </trkpt>
      <trkpt lat="48.08552" lon="6.84286">
        <ele>885.01</ele>
        <time>2020-12-21T11:37:47.218Z</time>
      </trkpt>
      <trkpt lat="48.08552" lon="6.8427">
        <ele>887.01</ele>
        <time>2020-12-21T11:37:57.000Z</time>
      </trkpt>
      <trkpt lat="48.08552" lon="6.84258">
        <ele>888.01</ele>
        <time>2020-12-21T11:38:06.112Z</time>
      </trkpt>
      <trkpt lat="48.08553" lon="6.84249">
        <ele>887.26</ele>
        <time>2020-12-21T11:38:16.000Z</time>
      </trkpt>
      <trkpt lat="48.08554" lon="6.84231">
        <ele>886.81</ele>
        <time>2020-12-21T11:38:25.313Z</time>
      </trkpt>
      <trkpt lat="48.08555" lon="6.84211">
        <ele>886.26</ele>
        <time>2020-12-21T11:38:36.000Z</time>
      </trkpt>
      <trkpt lat="48.08549" lon="6.84192">
        <ele>885.01</ele>
        <time>2020-12-21T11:38:46.000Z</time>
      </trkpt>
      <trkpt lat="48.08541" lon="6.8418">
        <ele>883.26</ele>
        <time>2020-12-21T11:38:56.000Z</time>
      </trkpt>
      <trkpt lat="48.08542" lon="6.84163">
        <ele>881.01</ele>
        <time>2020-12-21T11:39:06.000Z</time>
      </trkpt>
      <trkpt lat="48.08543" lon="6.84147">
        <ele>881.01</ele>
        <time>2020-12-21T11:39:15.660Z</time>
      </trkpt>
      <trkpt lat="48.0854" lon="6.84144">
        <ele>884.69</ele>
        <time>2020-12-21T11:39:25.000Z</time>
      </trkpt>
      <trkpt lat="48.0854" lon="6.84142">
        <ele>885.01</ele>
        <time>2020-12-21T11:39:35.000Z</time>
      </trkpt>
      <trkpt lat="48.08539" lon="6.84141">
        <ele>885.01</ele>
        <time>2020-12-21T11:39:47.000Z</time>
      </trkpt>
      <trkpt lat="48.08538" lon="6.8414">
        <ele>885.96</ele>
        <time>2020-12-21T11:40:07.000Z</time>
      </trkpt>
      <trkpt lat="48.08538" lon="6.84139">
        <ele>886.01</ele>
        <time>2020-12-21T11:40:27.000Z</time>
      </trkpt>
      <trkpt lat="48.08537" lon="6.84138">
        <ele>886.26</ele>
        <time>2020-12-21T11:40:43.000Z</time>
      </trkpt>
      <trkpt lat="48.08538" lon="6.84135">
        <ele>887.01</ele>
        <time>2020-12-21T11:40:52.808Z</time>
      </trkpt>
      <trkpt lat="48.0854" lon="6.84125">
        <ele>888.76</ele>
        <time>2020-12-21T11:41:02.277Z</time>
      </trkpt>
      <trkpt lat="48.0854" lon="6.84112">
        <ele>890.01</ele>
        <time>2020-12-21T11:41:12.000Z</time>
      </trkpt>
      <trkpt lat="48.08544" lon="6.84096">
        <ele>891.01</ele>
        <time>2020-12-21T11:41:22.000Z</time>
      </trkpt>
      <trkpt lat="48.08551" lon="6.84081">
        <ele>892</ele>
        <time>2020-12-21T11:41:33.000Z</time>
      </trkpt>
      <trkpt lat="48.08559" lon="6.84065">
        <ele>893.76</ele>
        <time>2020-12-21T11:41:42.940Z</time>
      </trkpt>
      <trkpt lat="48.08559" lon="6.84045">
        <ele>894.01</ele>
        <time>2020-12-21T11:41:52.000Z</time>
      </trkpt>
      <trkpt lat="48.08562" lon="6.8403">
        <ele>894.02</ele>
        <time>2020-12-21T11:42:02.000Z</time>
      </trkpt>
      <trkpt lat="48.08569" lon="6.84015">
        <ele>893.01</ele>
        <time>2020-12-21T11:42:11.481Z</time>
      </trkpt>
      <trkpt lat="48.08573" lon="6.84001">
        <ele>893.01</ele>
        <time>2020-12-21T11:42:21.000Z</time>
      </trkpt>
      <trkpt lat="48.08584" lon="6.83991">
        <ele>894.74</ele>
        <time>2020-12-21T11:42:31.000Z</time>
      </trkpt>
      <trkpt lat="48.08591" lon="6.83979">
        <ele>893.01</ele>
        <time>2020-12-21T11:42:41.000Z</time>
      </trkpt>
      <trkpt lat="48.08595" lon="6.83961">
        <ele>893.95</ele>
        <time>2020-12-21T11:42:50.265Z</time>
      </trkpt>
      <trkpt lat="48.08599" lon="6.83946">
        <ele>893.77</ele>
        <time>2020-12-21T11:43:00.000Z</time>
      </trkpt>
      <trkpt lat="48.08607" lon="6.83934">
        <ele>893.02</ele>
        <time>2020-12-21T11:43:10.073Z</time>
      </trkpt>
      <trkpt lat="48.08609" lon="6.83919">
        <ele>893.95</ele>
        <time>2020-12-21T11:43:20.000Z</time>
      </trkpt>
      <trkpt lat="48.08611" lon="6.83903">
        <ele>895</ele>
        <time>2020-12-21T11:43:30.000Z</time>
      </trkpt>
      <trkpt lat="48.08615" lon="6.83889">
        <ele>897</ele>
        <time>2020-12-21T11:43:39.002Z</time>
      </trkpt>
      <trkpt lat="48.08618" lon="6.83875">
        <ele>897.01</ele>
        <time>2020-12-21T11:43:49.000Z</time>
      </trkpt>
      <trkpt lat="48.08626" lon="6.83861">
        <ele>897.01</ele>
        <time>2020-12-21T11:43:59.000Z</time>
      </trkpt>
      <trkpt lat="48.08634" lon="6.83849">
        <ele>897.02</ele>
        <time>2020-12-21T11:44:09.000Z</time>
      </trkpt>
      <trkpt lat="48.0864" lon="6.83836">
        <ele>897.99</ele>
        <time>2020-12-21T11:44:19.000Z</time>
      </trkpt>
      <trkpt lat="48.08646" lon="6.83823">
        <ele>898.76</ele>
        <time>2020-12-21T11:44:29.000Z</time>
      </trkpt>
      <trkpt lat="48.08652" lon="6.8381">
        <ele>898.01</ele>
        <time>2020-12-21T11:44:38.894Z</time>
      </trkpt>
      <trkpt lat="48.08657" lon="6.838">
        <ele>897.01</ele>
        <time>2020-12-21T11:44:48.000Z</time>
      </trkpt>
      <trkpt lat="48.08665" lon="6.83788">
        <ele>895.03</ele>
        <time>2020-12-21T11:44:58.000Z</time>
      </trkpt>
      <trkpt lat="48.08673" lon="6.83774">
        <ele>893.07</ele>
        <time>2020-12-21T11:45:08.000Z</time>
      </trkpt>
      <trkpt lat="48.0868" lon="6.83759">
        <ele>894.01</ele>
        <time>2020-12-21T11:45:18.010Z</time>
      </trkpt>
      <trkpt lat="48.08679" lon="6.8374">
        <ele>892.01</ele>
        <time>2020-12-21T11:45:27.615Z</time>
      </trkpt>
      <trkpt lat="48.08683" lon="6.83726">
        <ele>891.01</ele>
        <time>2020-12-21T11:45:37.055Z</time>
      </trkpt>
      <trkpt lat="48.08689" lon="6.83711">
        <ele>891.01</ele>
        <time>2020-12-21T11:45:47.000Z</time>
      </trkpt>
      <trkpt lat="48.08693" lon="6.83698">
        <ele>890.07</ele>
        <time>2020-12-21T11:45:57.000Z</time>
      </trkpt>
      <trkpt lat="48.08697" lon="6.83684">
        <ele>890.01</ele>
        <time>2020-12-21T11:46:07.000Z</time>
      </trkpt>
      <trkpt lat="48.08702" lon="6.83669">
        <ele>889.01</ele>
        <time>2020-12-21T11:46:17.000Z</time>
      </trkpt>
      <trkpt lat="48.08705" lon="6.83652">
        <ele>887.01</ele>
        <time>2020-12-21T11:46:26.875Z</time>
      </trkpt>
      <trkpt lat="48.0871" lon="6.83639">
        <ele>886.76</ele>
        <time>2020-12-21T11:46:36.000Z</time>
      </trkpt>
      <trkpt lat="48.08716" lon="6.83621">
        <ele>888.01</ele>
        <time>2020-12-21T11:46:45.782Z</time>
      </trkpt>
      <trkpt lat="48.0872" lon="6.83608">
        <ele>889.99</ele>
        <time>2020-12-21T11:46:55.000Z</time>
      </trkpt>
      <trkpt lat="48.08724" lon="6.83591">
        <ele>888.76</ele>
        <time>2020-12-21T11:47:05.000Z</time>
      </trkpt>
      <trkpt lat="48.08729" lon="6.83576">
        <ele>888.01</ele>
        <time>2020-12-21T11:47:14.344Z</time>
      </trkpt>
      <trkpt lat="48.08737" lon="6.83564">
        <ele>888.01</ele>
        <time>2020-12-21T11:47:24.000Z</time>
      </trkpt>
      <trkpt lat="48.08742" lon="6.83548">
        <ele>887.26</ele>
        <time>2020-12-21T11:47:33.414Z</time>
      </trkpt>
      <trkpt lat="48.08747" lon="6.83533">
        <ele>887.01</ele>
        <time>2020-12-21T11:47:43.077Z</time>
      </trkpt>
      <trkpt lat="48.08751" lon="6.83518">
        <ele>885.01</ele>
        <time>2020-12-21T11:47:52.349Z</time>
      </trkpt>
      <trkpt lat="48.08756" lon="6.83504">
        <ele>884.01</ele>
        <time>2020-12-21T11:48:02.143Z</time>
      </trkpt>
      <trkpt lat="48.0876" lon="6.83489">
        <ele>883.78</ele>
        <time>2020-12-21T11:48:13.000Z</time>
      </trkpt>
      <trkpt lat="48.08764" lon="6.83491">
        <ele>885.01</ele>
        <time>2020-12-21T11:48:22.010Z</time>
      </trkpt>
      <trkpt lat="48.08766" lon="6.83484">
        <ele>882.01</ele>
        <time>2020-12-21T11:48:31.515Z</time>
      </trkpt>
      <trkpt lat="48.08768" lon="6.83467">
        <ele>882.01</ele>
        <time>2020-12-21T11:48:41.000Z</time>
      </trkpt>
      <trkpt lat="48.08772" lon="6.83451">
        <ele>882.2</ele>
        <time>2020-12-21T11:48:51.000Z</time>
      </trkpt>
      <trkpt lat="48.08781" lon="6.83438">
        <ele>881.01</ele>
        <time>2020-12-21T11:49:01.000Z</time>
      </trkpt>
      <trkpt lat="48.0878" lon="6.8342">
        <ele>882.01</ele>
        <time>2020-12-21T11:49:11.000Z</time>
      </trkpt>
      <trkpt lat="48.0878" lon="6.83401">
        <ele>880.76</ele>
        <time>2020-12-21T11:49:21.000Z</time>
      </trkpt>
      <trkpt lat="48.08784" lon="6.83384">
        <ele>880.07</ele>
        <time>2020-12-21T11:49:31.000Z</time>
      </trkpt>
      <trkpt lat="48.08788" lon="6.83371">
        <ele>866.89</ele>
        <time>2020-12-21T11:49:41.000Z</time>
      </trkpt>
      <trkpt lat="48.08784" lon="6.83357">
        <ele>878.92</ele>
        <time>2020-12-21T11:49:51.000Z</time>
      </trkpt>
      <trkpt lat="48.08781" lon="6.83334">
        <ele>881.01</ele>
        <time>2020-12-21T11:50:01.000Z</time>
      </trkpt>
      <trkpt lat="48.0878" lon="6.83315">
        <ele>881.01</ele>
        <time>2020-12-21T11:50:11.000Z</time>
      </trkpt>
      <trkpt lat="48.08782" lon="6.83295">
        <ele>881.07</ele>
        <time>2020-12-21T11:50:21.000Z</time>
      </trkpt>
      <trkpt lat="48.08782" lon="6.83277">
        <ele>879.26</ele>
        <time>2020-12-21T11:50:31.000Z</time>
      </trkpt>
      <trkpt lat="48.08782" lon="6.83258">
        <ele>879.01</ele>
        <time>2020-12-21T11:50:40.931Z</time>
      </trkpt>
      <trkpt lat="48.08788" lon="6.83241">
        <ele>878.01</ele>
        <time>2020-12-21T11:50:50.092Z</time>
      </trkpt>
      <trkpt lat="48.08793" lon="6.83227">
        <ele>878.26</ele>
        <time>2020-12-21T11:51:00.000Z</time>
      </trkpt>
      <trkpt lat="48.08789" lon="6.83208">
        <ele>877.26</ele>
        <time>2020-12-21T11:51:11.000Z</time>
      </trkpt>
      <trkpt lat="48.08792" lon="6.83188">
        <ele>878.76</ele>
        <time>2020-12-21T11:51:21.000Z</time>
      </trkpt>
      <trkpt lat="48.08799" lon="6.83171">
        <ele>878.76</ele>
        <time>2020-12-21T11:51:31.000Z</time>
      </trkpt>
      <trkpt lat="48.088" lon="6.83155">
        <ele>880.01</ele>
        <time>2020-12-21T11:51:41.000Z</time>
      </trkpt>
      <trkpt lat="48.08807" lon="6.8314">
        <ele>880.01</ele>
        <time>2020-12-21T11:51:51.000Z</time>
      </trkpt>
      <trkpt lat="48.08813" lon="6.83124">
        <ele>880.01</ele>
        <time>2020-12-21T11:52:01.000Z</time>
      </trkpt>
      <trkpt lat="48.08815" lon="6.83107">
        <ele>880.01</ele>
        <time>2020-12-21T11:52:10.542Z</time>
      </trkpt>
      <trkpt lat="48.08815" lon="6.8309">
        <ele>878.78</ele>
        <time>2020-12-21T11:52:21.000Z</time>
      </trkpt>
      <trkpt lat="48.08815" lon="6.83072">
        <ele>879.76</ele>
        <time>2020-12-21T11:52:31.000Z</time>
      </trkpt>
      <trkpt lat="48.08815" lon="6.83057">
        <ele>881.01</ele>
        <time>2020-12-21T11:52:40.070Z</time>
      </trkpt>
      <trkpt lat="48.08816" lon="6.83041">
        <ele>879.78</ele>
        <time>2020-12-21T11:52:49.399Z</time>
      </trkpt>
      <trkpt lat="48.08818" lon="6.83025">
        <ele>882.01</ele>
        <time>2020-12-21T11:52:59.000Z</time>
      </trkpt>
      <trkpt lat="48.0882" lon="6.83008">
        <ele>883.01</ele>
        <time>2020-12-21T11:53:08.569Z</time>
      </trkpt>
      <trkpt lat="48.08822" lon="6.82993">
        <ele>883.03</ele>
        <time>2020-12-21T11:53:18.075Z</time>
      </trkpt>
      <trkpt lat="48.08823" lon="6.8298">
        <ele>881.08</ele>
        <time>2020-12-21T11:53:28.000Z</time>
      </trkpt>
      <trkpt lat="48.0883" lon="6.82964">
        <ele>880.01</ele>
        <time>2020-12-21T11:53:38.000Z</time>
      </trkpt>
      <trkpt lat="48.08832" lon="6.82948">
        <ele>880.03</ele>
        <time>2020-12-21T11:53:47.065Z</time>
      </trkpt>
      <trkpt lat="48.08838" lon="6.82936">
        <ele>880.21</ele>
        <time>2020-12-21T11:53:57.000Z</time>
      </trkpt>
      <trkpt lat="48.08843" lon="6.82921">
        <ele>880.26</ele>
        <time>2020-12-21T11:54:07.000Z</time>
      </trkpt>
      <trkpt lat="48.08844" lon="6.82899">
        <ele>881.01</ele>
        <time>2020-12-21T11:54:17.234Z</time>
      </trkpt>
      <trkpt lat="48.08842" lon="6.82882">
        <ele>871.58</ele>
        <time>2020-12-21T11:54:27.000Z</time>
      </trkpt>
      <trkpt lat="48.08851" lon="6.82868">
        <ele>874.01</ele>
        <time>2020-12-21T11:54:37.000Z</time>
      </trkpt>
      <trkpt lat="48.08856" lon="6.8285">
        <ele>876.01</ele>
        <time>2020-12-21T11:54:46.579Z</time>
      </trkpt>
      <trkpt lat="48.08862" lon="6.82838">
        <ele>877.77</ele>
        <time>2020-12-21T11:54:57.000Z</time>
      </trkpt>
      <trkpt lat="48.08856" lon="6.8283">
        <ele>868.83</ele>
        <time>2020-12-21T11:55:07.000Z</time>
      </trkpt>
      <trkpt lat="48.08853" lon="6.82823">
        <ele>876.8</ele>
        <time>2020-12-21T11:55:17.000Z</time>
      </trkpt>
      <trkpt lat="48.08871" lon="6.82796">
        <ele>871.29</ele>
        <time>2020-12-21T11:55:27.000Z</time>
      </trkpt>
      <trkpt lat="48.08874" lon="6.82783">
        <ele>872.76</ele>
        <time>2020-12-21T11:55:37.000Z</time>
      </trkpt>
      <trkpt lat="48.08872" lon="6.82767">
        <ele>866.75</ele>
        <time>2020-12-21T11:55:47.000Z</time>
      </trkpt>
      <trkpt lat="48.08878" lon="6.82752">
        <ele>872.95</ele>
        <time>2020-12-21T11:55:58.000Z</time>
      </trkpt>
      <trkpt lat="48.0888" lon="6.82734">
        <ele>875.27</ele>
        <time>2020-12-21T11:56:07.106Z</time>
      </trkpt>
      <trkpt lat="48.08882" lon="6.82721">
        <ele>878</ele>
        <time>2020-12-21T11:56:17.000Z</time>
      </trkpt>
      <trkpt lat="48.08881" lon="6.82702">
        <ele>873.33</ele>
        <time>2020-12-21T11:56:27.000Z</time>
      </trkpt>
      <trkpt lat="48.08879" lon="6.82684">
        <ele>876</ele>
        <time>2020-12-21T11:56:37.000Z</time>
      </trkpt>
      <trkpt lat="48.08876" lon="6.82669">
        <ele>877.03</ele>
        <time>2020-12-21T11:56:47.000Z</time>
      </trkpt>
      <trkpt lat="48.08877" lon="6.8266">
        <ele>870.77</ele>
        <time>2020-12-21T11:56:56.079Z</time>
      </trkpt>
      <trkpt lat="48.08868" lon="6.82648">
        <ele>866.84</ele>
        <time>2020-12-21T11:57:06.009Z</time>
      </trkpt>
      <trkpt lat="48.08875" lon="6.8263">
        <ele>870.02</ele>
        <time>2020-12-21T11:57:16.000Z</time>
      </trkpt>
      <trkpt lat="48.08876" lon="6.82629">
        <ele>872.02</ele>
        <time>2020-12-21T11:57:26.000Z</time>
      </trkpt>
      <trkpt lat="48.08877" lon="6.82631">
        <ele>872.02</ele>
        <time>2020-12-21T11:57:36.000Z</time>
      </trkpt>
      <trkpt lat="48.08877" lon="6.82633">
        <ele>872.02</ele>
        <time>2020-12-21T11:57:46.000Z</time>
      </trkpt>
      <trkpt lat="48.08876" lon="6.82633">
        <ele>873.02</ele>
        <time>2020-12-21T11:58:11.000Z</time>
      </trkpt>
      <trkpt lat="48.08874" lon="6.82629">
        <ele>873.77</ele>
        <time>2020-12-21T11:58:21.000Z</time>
      </trkpt>
      <trkpt lat="48.08875" lon="6.82632">
        <ele>873.97</ele>
        <time>2020-12-21T11:58:31.000Z</time>
      </trkpt>
      <trkpt lat="48.08874" lon="6.82639">
        <ele>873.02</ele>
        <time>2020-12-21T11:58:41.000Z</time>
      </trkpt>
      <trkpt lat="48.08871" lon="6.82627">
        <ele>873.02</ele>
        <time>2020-12-21T11:58:51.000Z</time>
      </trkpt>
      <trkpt lat="48.08866" lon="6.82603">
        <ele>873.02</ele>
        <time>2020-12-21T11:59:01.000Z</time>
      </trkpt>
      <trkpt lat="48.0886" lon="6.82589">
        <ele>868.7</ele>
        <time>2020-12-21T11:59:11.000Z</time>
      </trkpt>
      <trkpt lat="48.08857" lon="6.82569">
        <ele>863.13</ele>
        <time>2020-12-21T11:59:21.000Z</time>
      </trkpt>
      <trkpt lat="48.08849" lon="6.82554">
        <ele>867.02</ele>
        <time>2020-12-21T11:59:30.117Z</time>
      </trkpt>
      <trkpt lat="48.08846" lon="6.82554">
        <ele>869.02</ele>
        <time>2020-12-21T11:59:40.000Z</time>
      </trkpt>
      <trkpt lat="48.08841" lon="6.82556">
        <ele>867.02</ele>
        <time>2020-12-21T11:59:49.049Z</time>
      </trkpt>
      <trkpt lat="48.0883" lon="6.82565">
        <ele>863.08</ele>
        <time>2020-12-21T11:59:58.095Z</time>
      </trkpt>
      <trkpt lat="48.08809" lon="6.82559">
        <ele>858.03</ele>
        <time>2020-12-21T12:00:08.122Z</time>
      </trkpt>
      <trkpt lat="48.08803" lon="6.82566">
        <ele>859.01</ele>
        <time>2020-12-21T12:00:18.000Z</time>
      </trkpt>
      <trkpt lat="48.08796" lon="6.82575">
        <ele>860.7</ele>
        <time>2020-12-21T12:00:28.000Z</time>
      </trkpt>
      <trkpt lat="48.08789" lon="6.82582">
        <ele>860.77</ele>
        <time>2020-12-21T12:00:38.000Z</time>
      </trkpt>
      <trkpt lat="48.08773" lon="6.82582">
        <ele>856.11</ele>
        <time>2020-12-21T12:00:47.127Z</time>
      </trkpt>
      <trkpt lat="48.08758" lon="6.82588">
        <ele>855.02</ele>
        <time>2020-12-21T12:00:57.035Z</time>
      </trkpt>
      <trkpt lat="48.08751" lon="6.82597">
        <ele>854.02</ele>
        <time>2020-12-21T12:01:07.000Z</time>
      </trkpt>
      <trkpt lat="48.08739" lon="6.82603">
        <ele>855.02</ele>
        <time>2020-12-21T12:01:16.920Z</time>
      </trkpt>
      <trkpt lat="48.08736" lon="6.82593">
        <ele>855</ele>
        <time>2020-12-21T12:01:27.023Z</time>
      </trkpt>
      <trkpt lat="48.08739" lon="6.82574">
        <ele>849.83</ele>
        <time>2020-12-21T12:01:37.000Z</time>
      </trkpt>
      <trkpt lat="48.08745" lon="6.82562">
        <ele>849.95</ele>
        <time>2020-12-21T12:01:46.385Z</time>
      </trkpt>
      <trkpt lat="48.08759" lon="6.82549">
        <ele>856.45</ele>
        <time>2020-12-21T12:01:55.781Z</time>
      </trkpt>
      <trkpt lat="48.08773" lon="6.82536">
        <ele>861.06</ele>
        <time>2020-12-21T12:02:05.000Z</time>
      </trkpt>
      <trkpt lat="48.08777" lon="6.82522">
        <ele>849.55</ele>
        <time>2020-12-21T12:02:15.000Z</time>
      </trkpt>
      <trkpt lat="48.08781" lon="6.82513">
        <ele>845.02</ele>
        <time>2020-12-21T12:02:24.226Z</time>
      </trkpt>
      <trkpt lat="48.08789" lon="6.82496">
        <ele>844.02</ele>
        <time>2020-12-21T12:02:34.000Z</time>
      </trkpt>
      <trkpt lat="48.088" lon="6.82479">
        <ele>839</ele>
        <time>2020-12-21T12:02:44.000Z</time>
      </trkpt>
      <trkpt lat="48.08805" lon="6.8246">
        <ele>840.08</ele>
        <time>2020-12-21T12:02:54.000Z</time>
      </trkpt>
      <trkpt lat="48.08816" lon="6.82447">
        <ele>843.77</ele>
        <time>2020-12-21T12:03:04.000Z</time>
      </trkpt>
      <trkpt lat="48.08816" lon="6.82439">
        <ele>843.02</ele>
        <time>2020-12-21T12:03:14.000Z</time>
      </trkpt>
      <trkpt lat="48.08816" lon="6.82434">
        <ele>842.83</ele>
        <time>2020-12-21T12:03:24.000Z</time>
      </trkpt>
      <trkpt lat="48.08825" lon="6.82403">
        <ele>843.77</ele>
        <time>2020-12-21T12:03:33.080Z</time>
      </trkpt>
      <trkpt lat="48.0883" lon="6.82393">
        <ele>845.02</ele>
        <time>2020-12-21T12:03:43.000Z</time>
      </trkpt>
      <trkpt lat="48.08833" lon="6.82386">
        <ele>845.02</ele>
        <time>2020-12-21T12:03:52.351Z</time>
      </trkpt>
      <trkpt lat="48.08836" lon="6.82376">
        <ele>843.02</ele>
        <time>2020-12-21T12:04:02.000Z</time>
      </trkpt>
      <trkpt lat="48.08841" lon="6.8235">
        <ele>843.02</ele>
        <time>2020-12-21T12:04:12.000Z</time>
      </trkpt>
      <trkpt lat="48.08845" lon="6.82333">
        <ele>842.21</ele>
        <time>2020-12-21T12:04:21.082Z</time>
      </trkpt>
      <trkpt lat="48.08843" lon="6.82311">
        <ele>841.02</ele>
        <time>2020-12-21T12:04:31.000Z</time>
      </trkpt>
      <trkpt lat="48.08846" lon="6.8229">
        <ele>840.02</ele>
        <time>2020-12-21T12:04:40.522Z</time>
      </trkpt>
      <trkpt lat="48.08857" lon="6.82274">
        <ele>853.56</ele>
        <time>2020-12-21T12:04:50.113Z</time>
      </trkpt>
      <trkpt lat="48.08866" lon="6.82267">
        <ele>846.02</ele>
        <time>2020-12-21T12:04:59.816Z</time>
      </trkpt>
      <trkpt lat="48.08868" lon="6.82253">
        <ele>840.96</ele>
        <time>2020-12-21T12:05:09.000Z</time>
      </trkpt>
      <trkpt lat="48.08866" lon="6.8224">
        <ele>836.57</ele>
        <time>2020-12-21T12:05:19.000Z</time>
      </trkpt>
      <trkpt lat="48.08868" lon="6.82225">
        <ele>839.02</ele>
        <time>2020-12-21T12:05:29.000Z</time>
      </trkpt>
      <trkpt lat="48.08869" lon="6.82209">
        <ele>837.02</ele>
        <time>2020-12-21T12:05:39.000Z</time>
      </trkpt>
      <trkpt lat="48.08872" lon="6.82193">
        <ele>837.02</ele>
        <time>2020-12-21T12:05:48.061Z</time>
      </trkpt>
      <trkpt lat="48.08878" lon="6.82183">
        <ele>837.02</ele>
        <time>2020-12-21T12:05:58.000Z</time>
      </trkpt>
      <trkpt lat="48.08881" lon="6.82173">
        <ele>837.02</ele>
        <time>2020-12-21T12:06:08.000Z</time>
      </trkpt>
      <trkpt lat="48.08883" lon="6.82157">
        <ele>836.02</ele>
        <time>2020-12-21T12:06:18.000Z</time>
      </trkpt>
      <trkpt lat="48.08886" lon="6.8215">
        <ele>836.27</ele>
        <time>2020-12-21T12:06:28.000Z</time>
      </trkpt>
      <trkpt lat="48.08888" lon="6.82129">
        <ele>835.77</ele>
        <time>2020-12-21T12:06:38.000Z</time>
      </trkpt>
      <trkpt lat="48.08887" lon="6.82113">
        <ele>835.02</ele>
        <time>2020-12-21T12:06:48.000Z</time>
      </trkpt>
      <trkpt lat="48.08887" lon="6.82108">
        <ele>835.02</ele>
        <time>2020-12-21T12:06:58.000Z</time>
      </trkpt>
      <trkpt lat="48.08888" lon="6.82105">
        <ele>834.08</ele>
        <time>2020-12-21T12:07:08.000Z</time>
      </trkpt>
      <trkpt lat="48.08896" lon="6.82081">
        <ele>824.08</ele>
        <time>2020-12-21T12:07:22.000Z</time>
      </trkpt>
      <trkpt lat="48.08894" lon="6.82032">
        <ele>834.06</ele>
        <time>2020-12-21T12:07:32.000Z</time>
      </trkpt>
      <trkpt lat="48.08902" lon="6.82018">
        <ele>826.03</ele>
        <time>2020-12-21T12:07:42.000Z</time>
      </trkpt>
      <trkpt lat="48.08906" lon="6.82007">
        <ele>813.03</ele>
        <time>2020-12-21T12:07:52.000Z</time>
      </trkpt>
      <trkpt lat="48.08915" lon="6.81989">
        <ele>817.94</ele>
        <time>2020-12-21T12:08:02.000Z</time>
      </trkpt>
      <trkpt lat="48.08922" lon="6.81981">
        <ele>810.47</ele>
        <time>2020-12-21T12:08:15.000Z</time>
      </trkpt>
      <trkpt lat="48.0894" lon="6.8195">
        <ele>838.2</ele>
        <time>2020-12-21T12:08:25.000Z</time>
      </trkpt>
      <trkpt lat="48.08942" lon="6.81942">
        <ele>828.57</ele>
        <time>2020-12-21T12:08:38.000Z</time>
      </trkpt>
      <trkpt lat="48.0894" lon="6.81924">
        <ele>820.16</ele>
        <time>2020-12-21T12:08:48.000Z</time>
      </trkpt>
      <trkpt lat="48.08953" lon="6.8191">
        <ele>813.07</ele>
        <time>2020-12-21T12:08:58.000Z</time>
      </trkpt>
      <trkpt lat="48.08952" lon="6.81904">
        <ele>814.02</ele>
        <time>2020-12-21T12:09:08.000Z</time>
      </trkpt>
      <trkpt lat="48.08958" lon="6.81893">
        <ele>810.04</ele>
        <time>2020-12-21T12:09:18.000Z</time>
      </trkpt>
      <trkpt lat="48.0896" lon="6.81877">
        <ele>810.02</ele>
        <time>2020-12-21T12:09:28.000Z</time>
      </trkpt>
      <trkpt lat="48.08964" lon="6.81859">
        <ele>808.83</ele>
        <time>2020-12-21T12:09:38.000Z</time>
      </trkpt>
      <trkpt lat="48.08968" lon="6.81849">
        <ele>808.02</ele>
        <time>2020-12-21T12:09:48.000Z</time>
      </trkpt>
      <trkpt lat="48.08973" lon="6.81828">
        <ele>809.01</ele>
        <time>2020-12-21T12:09:58.000Z</time>
      </trkpt>
      <trkpt lat="48.08978" lon="6.81807">
        <ele>804.87</ele>
        <time>2020-12-21T12:10:07.080Z</time>
      </trkpt>
      <trkpt lat="48.0898" lon="6.81793">
        <ele>806.02</ele>
        <time>2020-12-21T12:10:17.000Z</time>
      </trkpt>
      <trkpt lat="48.08991" lon="6.81778">
        <ele>807.02</ele>
        <time>2020-12-21T12:10:26.875Z</time>
      </trkpt>
      <trkpt lat="48.08999" lon="6.81766">
        <ele>809.01</ele>
        <time>2020-12-21T12:10:36.000Z</time>
      </trkpt>
      <trkpt lat="48.09009" lon="6.81752">
        <ele>809.02</ele>
        <time>2020-12-21T12:10:46.000Z</time>
      </trkpt>
      <trkpt lat="48.0901" lon="6.8174">
        <ele>809.96</ele>
        <time>2020-12-21T12:10:56.000Z</time>
      </trkpt>
      <trkpt lat="48.09003" lon="6.81718">
        <ele>807.02</ele>
        <time>2020-12-21T12:11:05.686Z</time>
      </trkpt>
      <trkpt lat="48.09" lon="6.81715">
        <ele>807.27</ele>
        <time>2020-12-21T12:11:14.915Z</time>
      </trkpt>
      <trkpt lat="48.09007" lon="6.81714">
        <ele>803.77</ele>
        <time>2020-12-21T12:11:24.000Z</time>
      </trkpt>
      <trkpt lat="48.09015" lon="6.8169">
        <ele>803.02</ele>
        <time>2020-12-21T12:11:34.000Z</time>
      </trkpt>
      <trkpt lat="48.09019" lon="6.81677">
        <ele>800.42</ele>
        <time>2020-12-21T12:11:44.000Z</time>
      </trkpt>
      <trkpt lat="48.09027" lon="6.81662">
        <ele>804.02</ele>
        <time>2020-12-21T12:11:54.000Z</time>
      </trkpt>
      <trkpt lat="48.09033" lon="6.81649">
        <ele>799.51</ele>
        <time>2020-12-21T12:12:04.000Z</time>
      </trkpt>
      <trkpt lat="48.09036" lon="6.81639">
        <ele>798.9</ele>
        <time>2020-12-21T12:12:14.000Z</time>
      </trkpt>
      <trkpt lat="48.09036" lon="6.81638">
        <ele>798.02</ele>
        <time>2020-12-21T12:12:24.000Z</time>
      </trkpt>
      <trkpt lat="48.09037" lon="6.81636">
        <ele>799.01</ele>
        <time>2020-12-21T12:12:38.000Z</time>
      </trkpt>
      <trkpt lat="48.09041" lon="6.8162">
        <ele>798.98</ele>
        <time>2020-12-21T12:12:48.000Z</time>
      </trkpt>
      <trkpt lat="48.09044" lon="6.81606">
        <ele>796.09</ele>
        <time>2020-12-21T12:12:58.000Z</time>
      </trkpt>
      <trkpt lat="48.09047" lon="6.81587">
        <ele>796.77</ele>
        <time>2020-12-21T12:13:08.000Z</time>
      </trkpt>
      <trkpt lat="48.09048" lon="6.81575">
        <ele>796.77</ele>
        <time>2020-12-21T12:13:18.067Z</time>
      </trkpt>
      <trkpt lat="48.09056" lon="6.81557">
        <ele>795.96</ele>
        <time>2020-12-21T12:13:28.000Z</time>
      </trkpt>
      <trkpt lat="48.09072" lon="6.81541">
        <ele>805.01</ele>
        <time>2020-12-21T12:13:38.085Z</time>
      </trkpt>
      <trkpt lat="48.09075" lon="6.81529">
        <ele>793.34</ele>
        <time>2020-12-21T12:13:47.105Z</time>
      </trkpt>
      <trkpt lat="48.09077" lon="6.81522">
        <ele>793.02</ele>
        <time>2020-12-21T12:13:58.000Z</time>
      </trkpt>
      <trkpt lat="48.09084" lon="6.81506">
        <ele>791.23</ele>
        <time>2020-12-21T12:14:07.001Z</time>
      </trkpt>
      <trkpt lat="48.09095" lon="6.81492">
        <ele>791.04</ele>
        <time>2020-12-21T12:14:17.000Z</time>
      </trkpt>
      <trkpt lat="48.09101" lon="6.81483">
        <ele>791.03</ele>
        <time>2020-12-21T12:14:26.064Z</time>
      </trkpt>
      <trkpt lat="48.09108" lon="6.81476">
        <ele>791.02</ele>
        <time>2020-12-21T12:14:36.000Z</time>
      </trkpt>
      <trkpt lat="48.09116" lon="6.81462">
        <ele>791.02</ele>
        <time>2020-12-21T12:14:46.000Z</time>
      </trkpt>
      <trkpt lat="48.09128" lon="6.81457">
        <ele>791.02</ele>
        <time>2020-12-21T12:14:55.089Z</time>
      </trkpt>
      <trkpt lat="48.09137" lon="6.81444">
        <ele>791.02</ele>
        <time>2020-12-21T12:15:05.000Z</time>
      </trkpt>
      <trkpt lat="48.09142" lon="6.81434">
        <ele>790.02</ele>
        <time>2020-12-21T12:15:15.000Z</time>
      </trkpt>
      <trkpt lat="48.09146" lon="6.81426">
        <ele>789.02</ele>
        <time>2020-12-21T12:15:25.000Z</time>
      </trkpt>
      <trkpt lat="48.09146" lon="6.81422">
        <ele>789.02</ele>
        <time>2020-12-21T12:15:35.000Z</time>
      </trkpt>
      <trkpt lat="48.09148" lon="6.81402">
        <ele>783.03</ele>
        <time>2020-12-21T12:15:44.536Z</time>
      </trkpt>
      <trkpt lat="48.09149" lon="6.81386">
        <ele>790.09</ele>
        <time>2020-12-21T12:15:54.000Z</time>
      </trkpt>
      <trkpt lat="48.09158" lon="6.81378">
        <ele>780.3</ele>
        <time>2020-12-21T12:16:04.071Z</time>
      </trkpt>
      <trkpt lat="48.09161" lon="6.81363">
        <ele>782.03</ele>
        <time>2020-12-21T12:16:14.000Z</time>
      </trkpt>
      <trkpt lat="48.09164" lon="6.81347">
        <ele>778.02</ele>
        <time>2020-12-21T12:16:24.000Z</time>
      </trkpt>
      <trkpt lat="48.09165" lon="6.81336">
        <ele>780.03</ele>
        <time>2020-12-21T12:16:34.000Z</time>
      </trkpt>
      <trkpt lat="48.09167" lon="6.81326">
        <ele>775.9</ele>
        <time>2020-12-21T12:16:44.000Z</time>
      </trkpt>
      <trkpt lat="48.09172" lon="6.8131">
        <ele>778.03</ele>
        <time>2020-12-21T12:16:54.092Z</time>
      </trkpt>
      <trkpt lat="48.09171" lon="6.81308">
        <ele>777.09</ele>
        <time>2020-12-21T12:17:04.000Z</time>
      </trkpt>
      <trkpt lat="48.09175" lon="6.81293">
        <ele>777.03</ele>
        <time>2020-12-21T12:17:13.067Z</time>
      </trkpt>
      <trkpt lat="48.09181" lon="6.81279">
        <ele>776.04</ele>
        <time>2020-12-21T12:17:23.019Z</time>
      </trkpt>
      <trkpt lat="48.09191" lon="6.81258">
        <ele>773.78</ele>
        <time>2020-12-21T12:17:33.133Z</time>
      </trkpt>
      <trkpt lat="48.09198" lon="6.81246">
        <ele>772.34</ele>
        <time>2020-12-21T12:17:42.460Z</time>
      </trkpt>
      <trkpt lat="48.09204" lon="6.81249">
        <ele>771.03</ele>
        <time>2020-12-21T12:17:53.000Z</time>
      </trkpt>
      <trkpt lat="48.09212" lon="6.81249">
        <ele>769.03</ele>
        <time>2020-12-21T12:18:03.069Z</time>
      </trkpt>
      <trkpt lat="48.09224" lon="6.81251">
        <ele>764.03</ele>
        <time>2020-12-21T12:18:12.087Z</time>
      </trkpt>
      <trkpt lat="48.09227" lon="6.81246">
        <ele>765.03</ele>
        <time>2020-12-21T12:18:22.000Z</time>
      </trkpt>
      <trkpt lat="48.09236" lon="6.81231">
        <ele>765.03</ele>
        <time>2020-12-21T12:18:31.968Z</time>
      </trkpt>
      <trkpt lat="48.09236" lon="6.81218">
        <ele>764.03</ele>
        <time>2020-12-21T12:18:42.000Z</time>
      </trkpt>
      <trkpt lat="48.09231" lon="6.81204">
        <ele>759.15</ele>
        <time>2020-12-21T12:18:52.000Z</time>
      </trkpt>
      <trkpt lat="48.0923" lon="6.81185">
        <ele>756.96</ele>
        <time>2020-12-21T12:19:02.087Z</time>
      </trkpt>
      <trkpt lat="48.09225" lon="6.81173">
        <ele>765.48</ele>
        <time>2020-12-21T12:19:12.000Z</time>
      </trkpt>
      <trkpt lat="48.09241" lon="6.81158">
        <ele>759.03</ele>
        <time>2020-12-21T12:19:21.516Z</time>
      </trkpt>
      <trkpt lat="48.09242" lon="6.81149">
        <ele>752.04</ele>
        <time>2020-12-21T12:19:32.000Z</time>
      </trkpt>
      <trkpt lat="48.09251" lon="6.81137">
        <ele>746.76</ele>
        <time>2020-12-21T12:19:42.000Z</time>
      </trkpt>
      <trkpt lat="48.09256" lon="6.81126">
        <ele>764.1</ele>
        <time>2020-12-21T12:19:51.970Z</time>
      </trkpt>
      <trkpt lat="48.09262" lon="6.81108">
        <ele>756.03</ele>
        <time>2020-12-21T12:20:01.505Z</time>
      </trkpt>
      <trkpt lat="48.09263" lon="6.81108">
        <ele>753.54</ele>
        <time>2020-12-21T12:20:11.000Z</time>
      </trkpt>
      <trkpt lat="48.09268" lon="6.81091">
        <ele>736.31</ele>
        <time>2020-12-21T12:20:21.000Z</time>
      </trkpt>
      <trkpt lat="48.09273" lon="6.81068">
        <ele>737.01</ele>
        <time>2020-12-21T12:20:30.224Z</time>
      </trkpt>
      <trkpt lat="48.09273" lon="6.81065">
        <ele>738.03</ele>
        <time>2020-12-21T12:20:41.727Z</time>
      </trkpt>
      <trkpt lat="48.09274" lon="6.81061">
        <ele>750.53</ele>
        <time>2020-12-21T12:20:51.000Z</time>
      </trkpt>
      <trkpt lat="48.09279" lon="6.81042">
        <ele>753.03</ele>
        <time>2020-12-21T12:21:00.609Z</time>
      </trkpt>
      <trkpt lat="48.09279" lon="6.81028">
        <ele>749.29</ele>
        <time>2020-12-21T12:21:10.000Z</time>
      </trkpt>
      <trkpt lat="48.09282" lon="6.81018">
        <ele>747.03</ele>
        <time>2020-12-21T12:21:19.312Z</time>
      </trkpt>
      <trkpt lat="48.09283" lon="6.81016">
        <ele>747.03</ele>
        <time>2020-12-21T12:21:29.000Z</time>
      </trkpt>
      <trkpt lat="48.09281" lon="6.81013">
        <ele>747.03</ele>
        <time>2020-12-21T12:21:39.000Z</time>
      </trkpt>
      <trkpt lat="48.09281" lon="6.80997">
        <ele>755.4</ele>
        <time>2020-12-21T12:21:48.419Z</time>
      </trkpt>
      <trkpt lat="48.09288" lon="6.8098">
        <ele>754.03</ele>
        <time>2020-12-21T12:21:58.000Z</time>
      </trkpt>
      <trkpt lat="48.0929" lon="6.80964">
        <ele>740.1</ele>
        <time>2020-12-21T12:22:08.000Z</time>
      </trkpt>
      <trkpt lat="48.09293" lon="6.80947">
        <ele>759.26</ele>
        <time>2020-12-21T12:22:17.985Z</time>
      </trkpt>
      <trkpt lat="48.09294" lon="6.80929">
        <ele>755.22</ele>
        <time>2020-12-21T12:22:27.000Z</time>
      </trkpt>
      <trkpt lat="48.09293" lon="6.80929">
        <ele>755.01</ele>
        <time>2020-12-21T12:22:39.000Z</time>
      </trkpt>
      <trkpt lat="48.0929" lon="6.80922">
        <ele>750.56</ele>
        <time>2020-12-21T12:22:49.000Z</time>
      </trkpt>
      <trkpt lat="48.09289" lon="6.80914">
        <ele>749.72</ele>
        <time>2020-12-21T12:22:59.000Z</time>
      </trkpt>
      <trkpt lat="48.09288" lon="6.80912">
        <ele>750.03</ele>
        <time>2020-12-21T12:23:09.000Z</time>
      </trkpt>
      <trkpt lat="48.09287" lon="6.80915">
        <ele>750.03</ele>
        <time>2020-12-21T12:23:19.000Z</time>
      </trkpt>
      <trkpt lat="48.09288" lon="6.80913">
        <ele>748.34</ele>
        <time>2020-12-21T12:23:31.000Z</time>
      </trkpt>
      <trkpt lat="48.09287" lon="6.80902">
        <ele>741.43</ele>
        <time>2020-12-21T12:23:41.000Z</time>
      </trkpt>
      <trkpt lat="48.0929" lon="6.80884">
        <ele>741.08</ele>
        <time>2020-12-21T12:23:51.000Z</time>
      </trkpt>
      <trkpt lat="48.09293" lon="6.80875">
        <ele>740.09</ele>
        <time>2020-12-21T12:24:01.000Z</time>
      </trkpt>
      <trkpt lat="48.09295" lon="6.80863">
        <ele>740.03</ele>
        <time>2020-12-21T12:24:10.061Z</time>
      </trkpt>
      <trkpt lat="48.09296" lon="6.8086">
        <ele>741.09</ele>
        <time>2020-12-21T12:24:20.000Z</time>
      </trkpt>
      <trkpt lat="48.09298" lon="6.80861">
        <ele>741.02</ele>
        <time>2020-12-21T12:24:30.000Z</time>
      </trkpt>
      <trkpt lat="48.09297" lon="6.80861">
        <ele>741.03</ele>
        <time>2020-12-21T12:25:17.000Z</time>
      </trkpt>
      <trkpt lat="48.09296" lon="6.80857">
        <ele>740.09</ele>
        <time>2020-12-21T12:25:32.000Z</time>
      </trkpt>
      <trkpt lat="48.09302" lon="6.80833">
        <ele>736.09</ele>
        <time>2020-12-21T12:25:41.906Z</time>
      </trkpt>
      <trkpt lat="48.09308" lon="6.80818">
        <ele>735.09</ele>
        <time>2020-12-21T12:25:51.000Z</time>
      </trkpt>
      <trkpt lat="48.09311" lon="6.80797">
        <ele>734.03</ele>
        <time>2020-12-21T12:26:01.000Z</time>
      </trkpt>
      <trkpt lat="48.09313" lon="6.80779">
        <ele>732.03</ele>
        <time>2020-12-21T12:26:10.426Z</time>
      </trkpt>
      <trkpt lat="48.09311" lon="6.80763">
        <ele>733.02</ele>
        <time>2020-12-21T12:26:20.483Z</time>
      </trkpt>
      <trkpt lat="48.09308" lon="6.80748">
        <ele>730.03</ele>
        <time>2020-12-21T12:26:30.000Z</time>
      </trkpt>
      <trkpt lat="48.09304" lon="6.8073">
        <ele>729.04</ele>
        <time>2020-12-21T12:26:39.150Z</time>
      </trkpt>
      <trkpt lat="48.09302" lon="6.80715">
        <ele>730.03</ele>
        <time>2020-12-21T12:26:49.000Z</time>
      </trkpt>
      <trkpt lat="48.093" lon="6.80711">
        <ele>730.03</ele>
        <time>2020-12-21T12:26:59.000Z</time>
      </trkpt>
      <trkpt lat="48.093" lon="6.80691">
        <ele>730.97</ele>
        <time>2020-12-21T12:27:08.477Z</time>
      </trkpt>
      <trkpt lat="48.09303" lon="6.80673">
        <ele>731.78</ele>
        <time>2020-12-21T12:27:19.000Z</time>
      </trkpt>
      <trkpt lat="48.09305" lon="6.80659">
        <ele>733.03</ele>
        <time>2020-12-21T12:27:29.000Z</time>
      </trkpt>
      <trkpt lat="48.09308" lon="6.8065">
        <ele>732.28</ele>
        <time>2020-12-21T12:27:39.000Z</time>
      </trkpt>
      <trkpt lat="48.09323" lon="6.80631">
        <ele>734.03</ele>
        <time>2020-12-21T12:27:48.725Z</time>
      </trkpt>
      <trkpt lat="48.09328" lon="6.80619">
        <ele>735.03</ele>
        <time>2020-12-21T12:27:59.105Z</time>
      </trkpt>
      <trkpt lat="48.09337" lon="6.80608">
        <ele>748.67</ele>
        <time>2020-12-21T12:28:09.000Z</time>
      </trkpt>
      <trkpt lat="48.09342" lon="6.8059">
        <ele>744.78</ele>
        <time>2020-12-21T12:28:18.771Z</time>
      </trkpt>
      <trkpt lat="48.09352" lon="6.80584">
        <ele>739.97</ele>
        <time>2020-12-21T12:28:29.000Z</time>
      </trkpt>
      <trkpt lat="48.09358" lon="6.80577">
        <ele>742.03</ele>
        <time>2020-12-21T12:28:39.000Z</time>
      </trkpt>
      <trkpt lat="48.09366" lon="6.80571">
        <ele>742.8</ele>
        <time>2020-12-21T12:28:49.000Z</time>
      </trkpt>
      <trkpt lat="48.09375" lon="6.80567">
        <ele>744.02</ele>
        <time>2020-12-21T12:28:59.000Z</time>
      </trkpt>
      <trkpt lat="48.09387" lon="6.80558">
        <ele>745.78</ele>
        <time>2020-12-21T12:29:09.000Z</time>
      </trkpt>
      <trkpt lat="48.09396" lon="6.8055">
        <ele>743.92</ele>
        <time>2020-12-21T12:29:18.305Z</time>
      </trkpt>
      <trkpt lat="48.09407" lon="6.8054">
        <ele>746.02</ele>
        <time>2020-12-21T12:29:27.649Z</time>
      </trkpt>
      <trkpt lat="48.09413" lon="6.80534">
        <ele>747.03</ele>
        <time>2020-12-21T12:29:37.000Z</time>
      </trkpt>
      <trkpt lat="48.09419" lon="6.80531">
        <ele>743.32</ele>
        <time>2020-12-21T12:29:46.383Z</time>
      </trkpt>
      <trkpt lat="48.09423" lon="6.80517">
        <ele>745.97</ele>
        <time>2020-12-21T12:29:56.000Z</time>
      </trkpt>
      <trkpt lat="48.09432" lon="6.80513">
        <ele>747.03</ele>
        <time>2020-12-21T12:30:06.000Z</time>
      </trkpt>
      <trkpt lat="48.09439" lon="6.8051">
        <ele>749.03</ele>
        <time>2020-12-21T12:30:15.394Z</time>
      </trkpt>
      <trkpt lat="48.09446" lon="6.80515">
        <ele>749.97</ele>
        <time>2020-12-21T12:30:25.000Z</time>
      </trkpt>
      <trkpt lat="48.09457" lon="6.80513">
        <ele>752.72</ele>
        <time>2020-12-21T12:30:35.000Z</time>
      </trkpt>
      <trkpt lat="48.09472" lon="6.80524">
        <ele>753.03</ele>
        <time>2020-12-21T12:30:45.000Z</time>
      </trkpt>
      <trkpt lat="48.09483" lon="6.80525">
        <ele>754.03</ele>
        <time>2020-12-21T12:30:55.000Z</time>
      </trkpt>
      <trkpt lat="48.09493" lon="6.80521">
        <ele>748.05</ele>
        <time>2020-12-21T12:31:04.289Z</time>
      </trkpt>
      <trkpt lat="48.09503" lon="6.80518">
        <ele>750.03</ele>
        <time>2020-12-21T12:31:13.416Z</time>
      </trkpt>
      <trkpt lat="48.09515" lon="6.80514">
        <ele>762.03</ele>
        <time>2020-12-21T12:31:24.000Z</time>
      </trkpt>
      <trkpt lat="48.09526" lon="6.80516">
        <ele>761.04</ele>
        <time>2020-12-21T12:31:34.000Z</time>
      </trkpt>
      <trkpt lat="48.09535" lon="6.80516">
        <ele>761.03</ele>
        <time>2020-12-21T12:31:44.000Z</time>
      </trkpt>
      <trkpt lat="48.0954" lon="6.80509">
        <ele>765.39</ele>
        <time>2020-12-21T12:31:54.000Z</time>
      </trkpt>
      <trkpt lat="48.09558" lon="6.80506">
        <ele>763.02</ele>
        <time>2020-12-21T12:32:04.000Z</time>
      </trkpt>
      <trkpt lat="48.09565" lon="6.80507">
        <ele>765.03</ele>
        <time>2020-12-21T12:32:13.076Z</time>
      </trkpt>
      <trkpt lat="48.09574" lon="6.8051">
        <ele>765.28</ele>
        <time>2020-12-21T12:32:23.000Z</time>
      </trkpt>
      <trkpt lat="48.09581" lon="6.80513">
        <ele>764.03</ele>
        <time>2020-12-21T12:32:32.101Z</time>
      </trkpt>
      <trkpt lat="48.09588" lon="6.80513">
        <ele>769.15</ele>
        <time>2020-12-21T12:32:42.000Z</time>
      </trkpt>
      <trkpt lat="48.09595" lon="6.80531">
        <ele>770.29</ele>
        <time>2020-12-21T12:32:53.000Z</time>
      </trkpt>
      <trkpt lat="48.09594" lon="6.80551">
        <ele>772.78</ele>
        <time>2020-12-21T12:33:04.000Z</time>
      </trkpt>
      <trkpt lat="48.09599" lon="6.80565">
        <ele>772.03</ele>
        <time>2020-12-21T12:33:14.000Z</time>
      </trkpt>
      <trkpt lat="48.09601" lon="6.80578">
        <ele>773.03</ele>
        <time>2020-12-21T12:33:23.266Z</time>
      </trkpt>
      <trkpt lat="48.09603" lon="6.80587">
        <ele>771.28</ele>
        <time>2020-12-21T12:33:33.000Z</time>
      </trkpt>
      <trkpt lat="48.0962" lon="6.80609">
        <ele>791.36</ele>
        <time>2020-12-21T12:33:43.000Z</time>
      </trkpt>
      <trkpt lat="48.09626" lon="6.80634">
        <ele>784.03</ele>
        <time>2020-12-21T12:33:57.472Z</time>
      </trkpt>
      <trkpt lat="48.09618" lon="6.80622">
        <ele>774.14</ele>
        <time>2020-12-21T12:34:07.000Z</time>
      </trkpt>
      <trkpt lat="48.09628" lon="6.80629">
        <ele>775.29</ele>
        <time>2020-12-21T12:34:18.000Z</time>
      </trkpt>
      <trkpt lat="48.09634" lon="6.80648">
        <ele>774.09</ele>
        <time>2020-12-21T12:34:27.300Z</time>
      </trkpt>
      <trkpt lat="48.09639" lon="6.8066">
        <ele>773.03</ele>
        <time>2020-12-21T12:34:36.643Z</time>
      </trkpt>
      <trkpt lat="48.09648" lon="6.80677">
        <ele>782</ele>
        <time>2020-12-21T12:34:46.079Z</time>
      </trkpt>
      <trkpt lat="48.09642" lon="6.80695">
        <ele>779.78</ele>
        <time>2020-12-21T12:34:56.000Z</time>
      </trkpt>
      <trkpt lat="48.09647" lon="6.80707">
        <ele>780.03</ele>
        <time>2020-12-21T12:35:06.000Z</time>
      </trkpt>
      <trkpt lat="48.09663" lon="6.80715">
        <ele>781.03</ele>
        <time>2020-12-21T12:35:16.000Z</time>
      </trkpt>
      <trkpt lat="48.09682" lon="6.8071">
        <ele>780.1</ele>
        <time>2020-12-21T12:35:26.000Z</time>
      </trkpt>
      <trkpt lat="48.09697" lon="6.80712">
        <ele>780.03</ele>
        <time>2020-12-21T12:35:36.114Z</time>
      </trkpt>
      <trkpt lat="48.09697" lon="6.80714">
        <ele>777.55</ele>
        <time>2020-12-21T12:35:46.000Z</time>
      </trkpt>
      <trkpt lat="48.0971" lon="6.80702">
        <ele>778.03</ele>
        <time>2020-12-21T12:35:55.103Z</time>
      </trkpt>
      <trkpt lat="48.09713" lon="6.80702">
        <ele>779.03</ele>
        <time>2020-12-21T12:36:04.213Z</time>
      </trkpt>
      <trkpt lat="48.09723" lon="6.80705">
        <ele>781.03</ele>
        <time>2020-12-21T12:36:15.000Z</time>
      </trkpt>
      <trkpt lat="48.09735" lon="6.80722">
        <ele>779.28</ele>
        <time>2020-12-21T12:36:25.000Z</time>
      </trkpt>
      <trkpt lat="48.09745" lon="6.80728">
        <ele>780.03</ele>
        <time>2020-12-21T12:36:34.400Z</time>
      </trkpt>
      <trkpt lat="48.09751" lon="6.80731">
        <ele>781.03</ele>
        <time>2020-12-21T12:36:44.000Z</time>
      </trkpt>
      <trkpt lat="48.09757" lon="6.80733">
        <ele>783.03</ele>
        <time>2020-12-21T12:36:53.069Z</time>
      </trkpt>
      <trkpt lat="48.09766" lon="6.80743">
        <ele>785.03</ele>
        <time>2020-12-21T12:37:03.000Z</time>
      </trkpt>
      <trkpt lat="48.09776" lon="6.80744">
        <ele>784.02</ele>
        <time>2020-12-21T12:37:13.000Z</time>
      </trkpt>
      <trkpt lat="48.0978" lon="6.80752">
        <ele>786.97</ele>
        <time>2020-12-21T12:37:23.000Z</time>
      </trkpt>
      <trkpt lat="48.0979" lon="6.8076">
        <ele>788.03</ele>
        <time>2020-12-21T12:37:32.629Z</time>
      </trkpt>
      <trkpt lat="48.09795" lon="6.80766">
        <ele>790.03</ele>
        <time>2020-12-21T12:37:41.689Z</time>
      </trkpt>
      <trkpt lat="48.098" lon="6.80783">
        <ele>792.03</ele>
        <time>2020-12-21T12:37:51.588Z</time>
      </trkpt>
      <trkpt lat="48.09811" lon="6.80792">
        <ele>792.78</ele>
        <time>2020-12-21T12:38:02.000Z</time>
      </trkpt>
      <trkpt lat="48.0982" lon="6.80803">
        <ele>795.03</ele>
        <time>2020-12-21T12:38:11.074Z</time>
      </trkpt>
      <trkpt lat="48.09823" lon="6.8081">
        <ele>795.03</ele>
        <time>2020-12-21T12:38:20.548Z</time>
      </trkpt>
      <trkpt lat="48.09825" lon="6.80814">
        <ele>795.03</ele>
        <time>2020-12-21T12:38:30.000Z</time>
      </trkpt>
      <trkpt lat="48.0983" lon="6.80828">
        <ele>797.03</ele>
        <time>2020-12-21T12:38:39.397Z</time>
      </trkpt>
      <trkpt lat="48.09835" lon="6.80834">
        <ele>798.97</ele>
        <time>2020-12-21T12:38:49.000Z</time>
      </trkpt>
      <trkpt lat="48.09841" lon="6.8085">
        <ele>800.97</ele>
        <time>2020-12-21T12:38:58.074Z</time>
      </trkpt>
      <trkpt lat="48.09852" lon="6.80869">
        <ele>802.78</ele>
        <time>2020-12-21T12:39:08.000Z</time>
      </trkpt>
      <trkpt lat="48.09861" lon="6.80877">
        <ele>806.78</ele>
        <time>2020-12-21T12:39:18.000Z</time>
      </trkpt>
      <trkpt lat="48.09866" lon="6.80895">
        <ele>810.03</ele>
        <time>2020-12-21T12:39:27.285Z</time>
      </trkpt>
      <trkpt lat="48.09868" lon="6.80902">
        <ele>811.05</ele>
        <time>2020-12-21T12:39:36.434Z</time>
      </trkpt>
      <trkpt lat="48.09869" lon="6.80909">
        <ele>812.09</ele>
        <time>2020-12-21T12:39:47.000Z</time>
      </trkpt>
      <trkpt lat="48.0987" lon="6.80911">
        <ele>812.03</ele>
        <time>2020-12-21T12:39:57.000Z</time>
      </trkpt>
      <trkpt lat="48.09869" lon="6.80909">
        <ele>812.03</ele>
        <time>2020-12-21T12:40:16.905Z</time>
      </trkpt>
      <trkpt lat="48.09876" lon="6.8091">
        <ele>813.8</ele>
        <time>2020-12-21T12:40:26.000Z</time>
      </trkpt>
      <trkpt lat="48.09881" lon="6.8092">
        <ele>813.09</ele>
        <time>2020-12-21T12:40:36.000Z</time>
      </trkpt>
      <trkpt lat="48.09882" lon="6.80927">
        <ele>813.03</ele>
        <time>2020-12-21T12:40:46.000Z</time>
      </trkpt>
      <trkpt lat="48.09884" lon="6.80934">
        <ele>813.03</ele>
        <time>2020-12-21T12:40:55.266Z</time>
      </trkpt>
      <trkpt lat="48.09888" lon="6.80943">
        <ele>813.78</ele>
        <time>2020-12-21T12:41:05.000Z</time>
      </trkpt>
      <trkpt lat="48.0989" lon="6.80964">
        <ele>815.03</ele>
        <time>2020-12-21T12:41:15.000Z</time>
      </trkpt>
      <trkpt lat="48.09895" lon="6.80975">
        <ele>814.78</ele>
        <time>2020-12-21T12:41:24.072Z</time>
      </trkpt>
      <trkpt lat="48.09899" lon="6.80993">
        <ele>809.03</ele>
        <time>2020-12-21T12:41:33.614Z</time>
      </trkpt>
      <trkpt lat="48.09904" lon="6.81013">
        <ele>809.03</ele>
        <time>2020-12-21T12:41:44.000Z</time>
      </trkpt>
      <trkpt lat="48.09906" lon="6.81027">
        <ele>811.78</ele>
        <time>2020-12-21T12:41:55.000Z</time>
      </trkpt>
      <trkpt lat="48.09908" lon="6.81032">
        <ele>814.03</ele>
        <time>2020-12-21T12:42:05.000Z</time>
      </trkpt>
      <trkpt lat="48.09909" lon="6.81044">
        <ele>814.03</ele>
        <time>2020-12-21T12:42:14.210Z</time>
      </trkpt>
      <trkpt lat="48.09909" lon="6.81076">
        <ele>823.34</ele>
        <time>2020-12-21T12:42:23.575Z</time>
      </trkpt>
      <trkpt lat="48.09909" lon="6.81087">
        <ele>819.03</ele>
        <time>2020-12-21T12:42:33.000Z</time>
      </trkpt>
      <trkpt lat="48.09906" lon="6.81099">
        <ele>818.3</ele>
        <time>2020-12-21T12:42:43.000Z</time>
      </trkpt>
      <trkpt lat="48.09908" lon="6.81108">
        <ele>816.11</ele>
        <time>2020-12-21T12:42:52.054Z</time>
      </trkpt>
      <trkpt lat="48.09915" lon="6.8113">
        <ele>811.03</ele>
        <time>2020-12-21T12:43:01.638Z</time>
      </trkpt>
      <trkpt lat="48.09922" lon="6.81148">
        <ele>810.01</ele>
        <time>2020-12-21T12:43:11.000Z</time>
      </trkpt>
      <trkpt lat="48.09921" lon="6.81155">
        <ele>812.01</ele>
        <time>2020-12-21T12:43:21.000Z</time>
      </trkpt>
      <trkpt lat="48.09919" lon="6.81164">
        <ele>813.72</ele>
        <time>2020-12-21T12:43:30.078Z</time>
      </trkpt>
      <trkpt lat="48.09914" lon="6.81188">
        <ele>816.97</ele>
        <time>2020-12-21T12:43:39.285Z</time>
      </trkpt>
      <trkpt lat="48.0991" lon="6.81198">
        <ele>817.03</ele>
        <time>2020-12-21T12:43:48.583Z</time>
      </trkpt>
      <trkpt lat="48.09914" lon="6.81219">
        <ele>816.03</ele>
        <time>2020-12-21T12:43:58.000Z</time>
      </trkpt>
      <trkpt lat="48.09913" lon="6.81228">
        <ele>817.03</ele>
        <time>2020-12-21T12:44:07.441Z</time>
      </trkpt>
      <trkpt lat="48.09912" lon="6.81245">
        <ele>819.03</ele>
        <time>2020-12-21T12:44:17.000Z</time>
      </trkpt>
      <trkpt lat="48.09915" lon="6.81268">
        <ele>819.01</ele>
        <time>2020-12-21T12:44:26.116Z</time>
      </trkpt>
      <trkpt lat="48.0991" lon="6.81278">
        <ele>820.78</ele>
        <time>2020-12-21T12:44:35.553Z</time>
      </trkpt>
      <trkpt lat="48.09909" lon="6.81281">
        <ele>821.03</ele>
        <time>2020-12-21T12:44:44.584Z</time>
      </trkpt>
      <trkpt lat="48.09905" lon="6.81295">
        <ele>821.03</ele>
        <time>2020-12-21T12:44:55.000Z</time>
      </trkpt>
      <trkpt lat="48.09896" lon="6.81313">
        <ele>822.03</ele>
        <time>2020-12-21T12:45:04.571Z</time>
      </trkpt>
      <trkpt lat="48.09891" lon="6.81332">
        <ele>823.02</ele>
        <time>2020-12-21T12:45:14.000Z</time>
      </trkpt>
      <trkpt lat="48.09881" lon="6.81351">
        <ele>823.03</ele>
        <time>2020-12-21T12:45:23.278Z</time>
      </trkpt>
      <trkpt lat="48.09874" lon="6.8136">
        <ele>823.03</ele>
        <time>2020-12-21T12:45:33.057Z</time>
      </trkpt>
      <trkpt lat="48.09871" lon="6.81367">
        <ele>821.28</ele>
        <time>2020-12-21T12:45:43.000Z</time>
      </trkpt>
      <trkpt lat="48.09863" lon="6.81379">
        <ele>809.72</ele>
        <time>2020-12-21T12:45:53.000Z</time>
      </trkpt>
      <trkpt lat="48.0985" lon="6.81393">
        <ele>814.28</ele>
        <time>2020-12-21T12:46:03.000Z</time>
      </trkpt>
      <trkpt lat="48.09839" lon="6.814">
        <ele>808.99</ele>
        <time>2020-12-21T12:46:14.000Z</time>
      </trkpt>
      <trkpt lat="48.09826" lon="6.81402">
        <ele>828.43</ele>
        <time>2020-12-21T12:46:24.000Z</time>
      </trkpt>
      <trkpt lat="48.0982" lon="6.81411">
        <ele>824.08</ele>
        <time>2020-12-21T12:46:33.122Z</time>
      </trkpt>
      <trkpt lat="48.0981" lon="6.81414">
        <ele>815.48</ele>
        <time>2020-12-21T12:46:43.000Z</time>
      </trkpt>
      <trkpt lat="48.09794" lon="6.81428">
        <ele>819.5</ele>
        <time>2020-12-21T12:46:52.406Z</time>
      </trkpt>
      <trkpt lat="48.09788" lon="6.81435">
        <ele>821.2</ele>
        <time>2020-12-21T12:47:02.000Z</time>
      </trkpt>
      <trkpt lat="48.09781" lon="6.8145">
        <ele>826.34</ele>
        <time>2020-12-21T12:47:12.000Z</time>
      </trkpt>
      <trkpt lat="48.09771" lon="6.81454">
        <ele>817.05</ele>
        <time>2020-12-21T12:47:22.000Z</time>
      </trkpt>
      <trkpt lat="48.09768" lon="6.8146">
        <ele>815.03</ele>
        <time>2020-12-21T12:47:32.000Z</time>
      </trkpt>
      <trkpt lat="48.0976" lon="6.81475">
        <ele>814.01</ele>
        <time>2020-12-21T12:47:42.000Z</time>
      </trkpt>
      <trkpt lat="48.09757" lon="6.81493">
        <ele>809.01</ele>
        <time>2020-12-21T12:47:52.000Z</time>
      </trkpt>
      <trkpt lat="48.0975" lon="6.81499">
        <ele>809.03</ele>
        <time>2020-12-21T12:48:01.805Z</time>
      </trkpt>
      <trkpt lat="48.09744" lon="6.81511">
        <ele>810.01</ele>
        <time>2020-12-21T12:48:11.000Z</time>
      </trkpt>
      <trkpt lat="48.09737" lon="6.81518">
        <ele>808.03</ele>
        <time>2020-12-21T12:48:21.000Z</time>
      </trkpt>
      <trkpt lat="48.0973" lon="6.81534">
        <ele>809.02</ele>
        <time>2020-12-21T12:48:31.000Z</time>
      </trkpt>
      <trkpt lat="48.09726" lon="6.81544">
        <ele>808.28</ele>
        <time>2020-12-21T12:48:40.510Z</time>
      </trkpt>
      <trkpt lat="48.09723" lon="6.81557">
        <ele>808.03</ele>
        <time>2020-12-21T12:48:50.268Z</time>
      </trkpt>
      <trkpt lat="48.09719" lon="6.81568">
        <ele>808.03</ele>
        <time>2020-12-21T12:48:59.804Z</time>
      </trkpt>
      <trkpt lat="48.09715" lon="6.81584">
        <ele>802.09</ele>
        <time>2020-12-21T12:49:09.000Z</time>
      </trkpt>
      <trkpt lat="48.09709" lon="6.81605">
        <ele>805.02</ele>
        <time>2020-12-21T12:49:19.000Z</time>
      </trkpt>
      <trkpt lat="48.09709" lon="6.81604">
        <ele>804.03</ele>
        <time>2020-12-21T12:49:29.000Z</time>
      </trkpt>
      <trkpt lat="48.09709" lon="6.81599">
        <ele>804.03</ele>
        <time>2020-12-21T12:49:39.000Z</time>
      </trkpt>
      <trkpt lat="48.09708" lon="6.81606">
        <ele>802.28</ele>
        <time>2020-12-21T12:49:49.000Z</time>
      </trkpt>
      <trkpt lat="48.09708" lon="6.81604">
        <ele>804.96</ele>
        <time>2020-12-21T12:49:59.000Z</time>
      </trkpt>
      <trkpt lat="48.09703" lon="6.81615">
        <ele>805.03</ele>
        <time>2020-12-21T12:50:09.000Z</time>
      </trkpt>
      <trkpt lat="48.09697" lon="6.81632">
        <ele>808.72</ele>
        <time>2020-12-21T12:50:18.061Z</time>
      </trkpt>
      <trkpt lat="48.09689" lon="6.81647">
        <ele>808.03</ele>
        <time>2020-12-21T12:50:28.000Z</time>
      </trkpt>
      <trkpt lat="48.09683" lon="6.81663">
        <ele>808.03</ele>
        <time>2020-12-21T12:50:37.617Z</time>
      </trkpt>
      <trkpt lat="48.09675" lon="6.8167">
        <ele>803.84</ele>
        <time>2020-12-21T12:50:47.000Z</time>
      </trkpt>
      <trkpt lat="48.09662" lon="6.81689">
        <ele>804.78</ele>
        <time>2020-12-21T12:50:57.252Z</time>
      </trkpt>
      <trkpt lat="48.09656" lon="6.81712">
        <ele>801.98</ele>
        <time>2020-12-21T12:51:07.000Z</time>
      </trkpt>
      <trkpt lat="48.09653" lon="6.81722">
        <ele>804.02</ele>
        <time>2020-12-21T12:51:17.000Z</time>
      </trkpt>
      <trkpt lat="48.09652" lon="6.81742">
        <ele>804.02</ele>
        <time>2020-12-21T12:51:27.000Z</time>
      </trkpt>
      <trkpt lat="48.09658" lon="6.81757">
        <ele>805.03</ele>
        <time>2020-12-21T12:51:37.000Z</time>
      </trkpt>
      <trkpt lat="48.09654" lon="6.81764">
        <ele>805.03</ele>
        <time>2020-12-21T12:51:47.000Z</time>
      </trkpt>
      <trkpt lat="48.09656" lon="6.81769">
        <ele>802.06</ele>
        <time>2020-12-21T12:51:57.000Z</time>
      </trkpt>
      <trkpt lat="48.09656" lon="6.81766">
        <ele>809.03</ele>
        <time>2020-12-21T12:52:09.000Z</time>
      </trkpt>
      <trkpt lat="48.09652" lon="6.81794">
        <ele>807.71</ele>
        <time>2020-12-21T12:52:19.000Z</time>
      </trkpt>
      <trkpt lat="48.09648" lon="6.81811">
        <ele>804.76</ele>
        <time>2020-12-21T12:52:28.423Z</time>
      </trkpt>
      <trkpt lat="48.09646" lon="6.81824">
        <ele>802.96</ele>
        <time>2020-12-21T12:52:37.756Z</time>
      </trkpt>
      <trkpt lat="48.09642" lon="6.81842">
        <ele>804.02</ele>
        <time>2020-12-21T12:52:47.000Z</time>
      </trkpt>
      <trkpt lat="48.09636" lon="6.81859">
        <ele>804.01</ele>
        <time>2020-12-21T12:52:57.000Z</time>
      </trkpt>
      <trkpt lat="48.09636" lon="6.81866">
        <ele>803.03</ele>
        <time>2020-12-21T12:53:07.000Z</time>
      </trkpt>
      <trkpt lat="48.09634" lon="6.8189">
        <ele>799.17</ele>
        <time>2020-12-21T12:53:16.456Z</time>
      </trkpt>
      <trkpt lat="48.0963" lon="6.81901">
        <ele>797.02</ele>
        <time>2020-12-21T12:53:25.547Z</time>
      </trkpt>
      <trkpt lat="48.09632" lon="6.81911">
        <ele>798.02</ele>
        <time>2020-12-21T12:53:35.000Z</time>
      </trkpt>
      <trkpt lat="48.09631" lon="6.81921">
        <ele>796.77</ele>
        <time>2020-12-21T12:53:45.000Z</time>
      </trkpt>
      <trkpt lat="48.09636" lon="6.81942">
        <ele>798.27</ele>
        <time>2020-12-21T12:53:55.000Z</time>
      </trkpt>
      <trkpt lat="48.09634" lon="6.81966">
        <ele>800.02</ele>
        <time>2020-12-21T12:54:05.000Z</time>
      </trkpt>
      <trkpt lat="48.0963" lon="6.81994">
        <ele>801.02</ele>
        <time>2020-12-21T12:54:16.000Z</time>
      </trkpt>
      <trkpt lat="48.09631" lon="6.82003">
        <ele>802.02</ele>
        <time>2020-12-21T12:54:26.000Z</time>
      </trkpt>
      <trkpt lat="48.09632" lon="6.82026">
        <ele>802.02</ele>
        <time>2020-12-21T12:54:35.067Z</time>
      </trkpt>
      <trkpt lat="48.0963" lon="6.82035">
        <ele>802.02</ele>
        <time>2020-12-21T12:54:45.000Z</time>
      </trkpt>
      <trkpt lat="48.09627" lon="6.82056">
        <ele>801.02</ele>
        <time>2020-12-21T12:54:55.042Z</time>
      </trkpt>
      <trkpt lat="48.09629" lon="6.82063">
        <ele>796.02</ele>
        <time>2020-12-21T12:55:05.000Z</time>
      </trkpt>
      <trkpt lat="48.09624" lon="6.82092">
        <ele>797.01</ele>
        <time>2020-12-21T12:55:16.000Z</time>
      </trkpt>
      <trkpt lat="48.09619" lon="6.82103">
        <ele>798.02</ele>
        <time>2020-12-21T12:55:26.000Z</time>
      </trkpt>
      <trkpt lat="48.09618" lon="6.82105">
        <ele>793.9</ele>
        <time>2020-12-21T12:55:36.000Z</time>
      </trkpt>
      <trkpt lat="48.09615" lon="6.82117">
        <ele>794.95</ele>
        <time>2020-12-21T12:55:46.000Z</time>
      </trkpt>
      <trkpt lat="48.09613" lon="6.82126">
        <ele>792.77</ele>
        <time>2020-12-21T12:55:55.730Z</time>
      </trkpt>
      <trkpt lat="48.09609" lon="6.82137">
        <ele>797.93</ele>
        <time>2020-12-21T12:56:05.000Z</time>
      </trkpt>
      <trkpt lat="48.09607" lon="6.82143">
        <ele>796.09</ele>
        <time>2020-12-21T12:56:14.321Z</time>
      </trkpt>
      <trkpt lat="48.09606" lon="6.82158">
        <ele>802.02</ele>
        <time>2020-12-21T12:56:24.000Z</time>
      </trkpt>
      <trkpt lat="48.09604" lon="6.82168">
        <ele>804.09</ele>
        <time>2020-12-21T12:56:34.000Z</time>
      </trkpt>
      <trkpt lat="48.09602" lon="6.82171">
        <ele>804.29</ele>
        <time>2020-12-21T12:56:44.000Z</time>
      </trkpt>
      <trkpt lat="48.09602" lon="6.82176">
        <ele>808.77</ele>
        <time>2020-12-21T12:56:53.143Z</time>
      </trkpt>
      <trkpt lat="48.096" lon="6.82182">
        <ele>800.48</ele>
        <time>2020-12-21T12:57:03.000Z</time>
      </trkpt>
      <trkpt lat="48.09599" lon="6.82178">
        <ele>792.95</ele>
        <time>2020-12-21T12:57:13.000Z</time>
      </trkpt>
      <trkpt lat="48.09601" lon="6.82182">
        <ele>793.02</ele>
        <time>2020-12-21T12:57:23.000Z</time>
      </trkpt>
      <trkpt lat="48.09603" lon="6.82186">
        <ele>790.77</ele>
        <time>2020-12-21T12:57:34.000Z</time>
      </trkpt>
      <trkpt lat="48.09606" lon="6.82216">
        <ele>789.54</ele>
        <time>2020-12-21T12:57:43.002Z</time>
      </trkpt>
      <trkpt lat="48.09599" lon="6.82236">
        <ele>796.02</ele>
        <time>2020-12-21T12:57:52.657Z</time>
      </trkpt>
      <trkpt lat="48.09595" lon="6.82254">
        <ele>797.02</ele>
        <time>2020-12-21T12:58:02.000Z</time>
      </trkpt>
      <trkpt lat="48.09593" lon="6.82274">
        <ele>795.96</ele>
        <time>2020-12-21T12:58:11.065Z</time>
      </trkpt>
      <trkpt lat="48.09592" lon="6.82294">
        <ele>797.02</ele>
        <time>2020-12-21T12:58:22.000Z</time>
      </trkpt>
      <trkpt lat="48.09593" lon="6.82304">
        <ele>799.02</ele>
        <time>2020-12-21T12:58:31.066Z</time>
      </trkpt>
      <trkpt lat="48.0959" lon="6.82308">
        <ele>802.02</ele>
        <time>2020-12-21T12:58:41.000Z</time>
      </trkpt>
      <trkpt lat="48.09589" lon="6.82309">
        <ele>802.02</ele>
        <time>2020-12-21T12:58:51.000Z</time>
      </trkpt>
      <trkpt lat="48.09585" lon="6.8231">
        <ele>802.01</ele>
        <time>2020-12-21T12:59:01.000Z</time>
      </trkpt>
      <trkpt lat="48.09528" lon="6.82253">
        <ele>801.96</ele>
        <time>2020-12-21T12:59:12.000Z</time>
      </trkpt>
      <trkpt lat="48.09556" lon="6.82264">
        <ele>802.96</ele>
        <time>2020-12-21T12:59:31.000Z</time>
      </trkpt>
      <trkpt lat="48.0958" lon="6.82313">
        <ele>799.03</ele>
        <time>2020-12-21T12:59:41.000Z</time>
      </trkpt>
      <trkpt lat="48.09581" lon="6.82312">
        <ele>797.02</ele>
        <time>2020-12-21T12:59:51.000Z</time>
      </trkpt>
      <trkpt lat="48.09579" lon="6.82311">
        <ele>793.83</ele>
        <time>2020-12-21T13:00:03.000Z</time>
      </trkpt>
      <trkpt lat="48.09578" lon="6.82311">
        <ele>794.02</ele>
        <time>2020-12-21T13:00:15.000Z</time>
      </trkpt>
      <trkpt lat="48.09577" lon="6.82311">
        <ele>794.02</ele>
        <time>2020-12-21T13:00:25.000Z</time>
      </trkpt>
      <trkpt lat="48.09581" lon="6.82315">
        <ele>792.01</ele>
        <time>2020-12-21T13:00:35.000Z</time>
      </trkpt>
      <trkpt lat="48.0958" lon="6.82325">
        <ele>791.03</ele>
        <time>2020-12-21T13:00:45.000Z</time>
      </trkpt>
      <trkpt lat="48.09584" lon="6.8232">
        <ele>794.02</ele>
        <time>2020-12-21T13:00:54.767Z</time>
      </trkpt>
      <trkpt lat="48.09585" lon="6.8232">
        <ele>795.02</ele>
        <time>2020-12-21T13:01:04.000Z</time>
      </trkpt>
      <trkpt lat="48.09586" lon="6.82335">
        <ele>795.02</ele>
        <time>2020-12-21T13:01:14.119Z</time>
      </trkpt>
      <trkpt lat="48.09586" lon="6.82344">
        <ele>796.02</ele>
        <time>2020-12-21T13:01:23.174Z</time>
      </trkpt>
      <trkpt lat="48.09587" lon="6.82345">
        <ele>796.02</ele>
        <time>2020-12-21T13:01:32.430Z</time>
      </trkpt>
      <trkpt lat="48.09586" lon="6.8236">
        <ele>795.02</ele>
        <time>2020-12-21T13:01:41.613Z</time>
      </trkpt>
      <trkpt lat="48.09577" lon="6.82394">
        <ele>815.95</ele>
        <time>2020-12-21T13:01:51.000Z</time>
      </trkpt>
      <trkpt lat="48.09573" lon="6.82421">
        <ele>816.03</ele>
        <time>2020-12-21T13:02:00.326Z</time>
      </trkpt>
      <trkpt lat="48.09573" lon="6.82423">
        <ele>816.02</ele>
        <time>2020-12-21T13:02:13.299Z</time>
      </trkpt>
      <trkpt lat="48.09572" lon="6.82426">
        <ele>815.27</ele>
        <time>2020-12-21T13:02:24.665Z</time>
      </trkpt>
      <trkpt lat="48.09566" lon="6.8246">
        <ele>814.02</ele>
        <time>2020-12-21T13:02:34.000Z</time>
      </trkpt>
      <trkpt lat="48.09566" lon="6.82461">
        <ele>814.02</ele>
        <time>2020-12-21T13:02:44.000Z</time>
      </trkpt>
      <trkpt lat="48.09565" lon="6.82478">
        <ele>813.77</ele>
        <time>2020-12-21T13:02:54.071Z</time>
      </trkpt>
      <trkpt lat="48.09564" lon="6.82504">
        <ele>812.02</ele>
        <time>2020-12-21T13:03:03.343Z</time>
      </trkpt>
      <trkpt lat="48.09558" lon="6.82539">
        <ele>809.02</ele>
        <time>2020-12-21T13:03:13.433Z</time>
      </trkpt>
      <trkpt lat="48.09557" lon="6.82558">
        <ele>811</ele>
        <time>2020-12-21T13:03:23.192Z</time>
      </trkpt>
      <trkpt lat="48.09554" lon="6.82571">
        <ele>811.02</ele>
        <time>2020-12-21T13:03:33.000Z</time>
      </trkpt>
      <trkpt lat="48.09552" lon="6.82578">
        <ele>807.03</ele>
        <time>2020-12-21T13:03:42.403Z</time>
      </trkpt>
      <trkpt lat="48.09545" lon="6.82601">
        <ele>808.77</ele>
        <time>2020-12-21T13:03:52.000Z</time>
      </trkpt>
      <trkpt lat="48.09543" lon="6.82617">
        <ele>809.02</ele>
        <time>2020-12-21T13:04:01.287Z</time>
      </trkpt>
      <trkpt lat="48.09543" lon="6.8263">
        <ele>810.02</ele>
        <time>2020-12-21T13:04:10.318Z</time>
      </trkpt>
      <trkpt lat="48.09541" lon="6.82647">
        <ele>801.4</ele>
        <time>2020-12-21T13:04:20.000Z</time>
      </trkpt>
      <trkpt lat="48.09539" lon="6.82677">
        <ele>800.77</ele>
        <time>2020-12-21T13:04:29.627Z</time>
      </trkpt>
      <trkpt lat="48.09536" lon="6.82683">
        <ele>801.02</ele>
        <time>2020-12-21T13:04:39.000Z</time>
      </trkpt>
      <trkpt lat="48.09536" lon="6.82685">
        <ele>793.61</ele>
        <time>2020-12-21T13:04:55.000Z</time>
      </trkpt>
      <trkpt lat="48.09534" lon="6.82712">
        <ele>796.02</ele>
        <time>2020-12-21T13:05:05.000Z</time>
      </trkpt>
      <trkpt lat="48.09535" lon="6.82714">
        <ele>796.02</ele>
        <time>2020-12-21T13:05:15.648Z</time>
      </trkpt>
      <trkpt lat="48.09534" lon="6.82724">
        <ele>797.02</ele>
        <time>2020-12-21T13:05:25.071Z</time>
      </trkpt>
      <trkpt lat="48.09532" lon="6.8274">
        <ele>793.06</ele>
        <time>2020-12-21T13:05:34.486Z</time>
      </trkpt>
      <trkpt lat="48.09523" lon="6.8278">
        <ele>838.57</ele>
        <time>2020-12-21T13:05:44.000Z</time>
      </trkpt>
      <trkpt lat="48.09519" lon="6.82798">
        <ele>829.02</ele>
        <time>2020-12-21T13:05:53.107Z</time>
      </trkpt>
      <trkpt lat="48.09519" lon="6.828">
        <ele>825.58</ele>
        <time>2020-12-21T13:06:04.000Z</time>
      </trkpt>
      <trkpt lat="48.09511" lon="6.82816">
        <ele>821.02</ele>
        <time>2020-12-21T13:06:14.000Z</time>
      </trkpt>
      <trkpt lat="48.09506" lon="6.82824">
        <ele>819.27</ele>
        <time>2020-12-21T13:06:23.100Z</time>
      </trkpt>
      <trkpt lat="48.09503" lon="6.8283">
        <ele>816.39</ele>
        <time>2020-12-21T13:06:33.000Z</time>
      </trkpt>
      <trkpt lat="48.09488" lon="6.82854">
        <ele>830.08</ele>
        <time>2020-12-21T13:06:43.000Z</time>
      </trkpt>
      <trkpt lat="48.09478" lon="6.82881">
        <ele>825.15</ele>
        <time>2020-12-21T13:06:53.000Z</time>
      </trkpt>
      <trkpt lat="48.09471" lon="6.82887">
        <ele>809.29</ele>
        <time>2020-12-21T13:07:03.000Z</time>
      </trkpt>
      <trkpt lat="48.09475" lon="6.82911">
        <ele>798.02</ele>
        <time>2020-12-21T13:07:12.676Z</time>
      </trkpt>
      <trkpt lat="48.0947" lon="6.82922">
        <ele>803.95</ele>
        <time>2020-12-21T13:07:21.980Z</time>
      </trkpt>
      <trkpt lat="48.09469" lon="6.82925">
        <ele>804.02</ele>
        <time>2020-12-21T13:07:31.068Z</time>
      </trkpt>
      <trkpt lat="48.09469" lon="6.82927">
        <ele>803.08</ele>
        <time>2020-12-21T13:07:45.000Z</time>
      </trkpt>
      <trkpt lat="48.09461" lon="6.82949">
        <ele>803.02</ele>
        <time>2020-12-21T13:07:55.000Z</time>
      </trkpt>
      <trkpt lat="48.09461" lon="6.8296">
        <ele>803.02</ele>
        <time>2020-12-21T13:08:04.069Z</time>
      </trkpt>
      <trkpt lat="48.09459" lon="6.82973">
        <ele>805.02</ele>
        <time>2020-12-21T13:08:14.000Z</time>
      </trkpt>
      <trkpt lat="48.09454" lon="6.82985">
        <ele>824.27</ele>
        <time>2020-12-21T13:08:24.000Z</time>
      </trkpt>
      <trkpt lat="48.09437" lon="6.83026">
        <ele>795.52</ele>
        <time>2020-12-21T13:08:34.000Z</time>
      </trkpt>
      <trkpt lat="48.09432" lon="6.83051">
        <ele>822.22</ele>
        <time>2020-12-21T13:08:44.000Z</time>
      </trkpt>
      <trkpt lat="48.09425" lon="6.83069">
        <ele>822.46</ele>
        <time>2020-12-21T13:08:54.000Z</time>
      </trkpt>
      <trkpt lat="48.09431" lon="6.83075">
        <ele>819.02</ele>
        <time>2020-12-21T13:09:04.000Z</time>
      </trkpt>
      <trkpt lat="48.09431" lon="6.83074">
        <ele>819.02</ele>
        <time>2020-12-21T13:09:28.886Z</time>
      </trkpt>
      <trkpt lat="48.09429" lon="6.83074">
        <ele>817.04</ele>
        <time>2020-12-21T13:09:38.000Z</time>
      </trkpt>
      <trkpt lat="48.0942" lon="6.83105">
        <ele>815.02</ele>
        <time>2020-12-21T13:09:47.266Z</time>
      </trkpt>
      <trkpt lat="48.09414" lon="6.83126">
        <ele>809.89</ele>
        <time>2020-12-21T13:09:57.000Z</time>
      </trkpt>
      <trkpt lat="48.09403" lon="6.83148">
        <ele>809.02</ele>
        <time>2020-12-21T13:10:06.121Z</time>
      </trkpt>
      <trkpt lat="48.09399" lon="6.83162">
        <ele>806.77</ele>
        <time>2020-12-21T13:10:16.000Z</time>
      </trkpt>
      <trkpt lat="48.09394" lon="6.83193">
        <ele>803.02</ele>
        <time>2020-12-21T13:10:25.125Z</time>
      </trkpt>
      <trkpt lat="48.0938" lon="6.83208">
        <ele>805.26</ele>
        <time>2020-12-21T13:10:36.000Z</time>
      </trkpt>
      <trkpt lat="48.09374" lon="6.83234">
        <ele>805.01</ele>
        <time>2020-12-21T13:10:45.938Z</time>
      </trkpt>
      <trkpt lat="48.09371" lon="6.8324">
        <ele>803.77</ele>
        <time>2020-12-21T13:10:55.000Z</time>
      </trkpt>
      <trkpt lat="48.09362" lon="6.83255">
        <ele>822.51</ele>
        <time>2020-12-21T13:11:06.000Z</time>
      </trkpt>
      <trkpt lat="48.0936" lon="6.83278">
        <ele>821.02</ele>
        <time>2020-12-21T13:11:16.000Z</time>
      </trkpt>
      <trkpt lat="48.09361" lon="6.83278">
        <ele>821.02</ele>
        <time>2020-12-21T13:11:26.000Z</time>
      </trkpt>
      <trkpt lat="48.09358" lon="6.83283">
        <ele>823</ele>
        <time>2020-12-21T13:11:35.282Z</time>
      </trkpt>
      <trkpt lat="48.09355" lon="6.83294">
        <ele>823.77</ele>
        <time>2020-12-21T13:11:44.747Z</time>
      </trkpt>
      <trkpt lat="48.09352" lon="6.83317">
        <ele>823.25</ele>
        <time>2020-12-21T13:11:54.000Z</time>
      </trkpt>
      <trkpt lat="48.09346" lon="6.83344">
        <ele>823.02</ele>
        <time>2020-12-21T13:12:03.513Z</time>
      </trkpt>
      <trkpt lat="48.09345" lon="6.83345">
        <ele>823.02</ele>
        <time>2020-12-21T13:12:14.000Z</time>
      </trkpt>
      <trkpt lat="48.09342" lon="6.83375">
        <ele>817.28</ele>
        <time>2020-12-21T13:12:24.000Z</time>
      </trkpt>
      <trkpt lat="48.0934" lon="6.83387">
        <ele>817.76</ele>
        <time>2020-12-21T13:12:34.000Z</time>
      </trkpt>
      <trkpt lat="48.09339" lon="6.83396">
        <ele>819.01</ele>
        <time>2020-12-21T13:12:43.124Z</time>
      </trkpt>
      <trkpt lat="48.09339" lon="6.83397">
        <ele>817.51</ele>
        <time>2020-12-21T13:12:54.000Z</time>
      </trkpt>
      <trkpt lat="48.0933" lon="6.8343">
        <ele>818.25</ele>
        <time>2020-12-21T13:13:04.067Z</time>
      </trkpt>
      <trkpt lat="48.09328" lon="6.83439">
        <ele>819.01</ele>
        <time>2020-12-21T13:13:15.000Z</time>
      </trkpt>
      <trkpt lat="48.09328" lon="6.83443">
        <ele>818.01</ele>
        <time>2020-12-21T13:13:25.000Z</time>
      </trkpt>
      <trkpt lat="48.0933" lon="6.83447">
        <ele>815.01</ele>
        <time>2020-12-21T13:13:36.000Z</time>
      </trkpt>
      <trkpt lat="48.09324" lon="6.83486">
        <ele>809.01</ele>
        <time>2020-12-21T13:13:46.000Z</time>
      </trkpt>
      <trkpt lat="48.09323" lon="6.83492">
        <ele>810.01</ele>
        <time>2020-12-21T13:13:55.026Z</time>
      </trkpt>
      <trkpt lat="48.09321" lon="6.83506">
        <ele>811.01</ele>
        <time>2020-12-21T13:14:04.826Z</time>
      </trkpt>
      <trkpt lat="48.0932" lon="6.83517">
        <ele>811.01</ele>
        <time>2020-12-21T13:14:15.000Z</time>
      </trkpt>
      <trkpt lat="48.09317" lon="6.83551">
        <ele>817.95</ele>
        <time>2020-12-21T13:14:25.000Z</time>
      </trkpt>
      <trkpt lat="48.09319" lon="6.83568">
        <ele>819.99</ele>
        <time>2020-12-21T13:14:35.000Z</time>
      </trkpt>
      <trkpt lat="48.09318" lon="6.83575">
        <ele>820.01</ele>
        <time>2020-12-21T13:14:45.000Z</time>
      </trkpt>
      <trkpt lat="48.09318" lon="6.83578">
        <ele>819.02</ele>
        <time>2020-12-21T13:15:00.000Z</time>
      </trkpt>
      <trkpt lat="48.09312" lon="6.83628">
        <ele>815.26</ele>
        <time>2020-12-21T13:15:10.116Z</time>
      </trkpt>
      <trkpt lat="48.09312" lon="6.83656">
        <ele>817.95</ele>
        <time>2020-12-21T13:15:19.378Z</time>
      </trkpt>
      <trkpt lat="48.09309" lon="6.83663">
        <ele>820.01</ele>
        <time>2020-12-21T13:15:29.000Z</time>
      </trkpt>
      <trkpt lat="48.09308" lon="6.83667">
        <ele>820.01</ele>
        <time>2020-12-21T13:15:39.000Z</time>
      </trkpt>
      <trkpt lat="48.09307" lon="6.83679">
        <ele>822.01</ele>
        <time>2020-12-21T13:15:48.752Z</time>
      </trkpt>
      <trkpt lat="48.093" lon="6.8371">
        <ele>823</ele>
        <time>2020-12-21T13:15:58.000Z</time>
      </trkpt>
      <trkpt lat="48.09296" lon="6.83726">
        <ele>821.01</ele>
        <time>2020-12-21T13:16:08.000Z</time>
      </trkpt>
      <trkpt lat="48.09291" lon="6.83738">
        <ele>821.76</ele>
        <time>2020-12-21T13:16:18.000Z</time>
      </trkpt>
      <trkpt lat="48.09291" lon="6.8374">
        <ele>822.43</ele>
        <time>2020-12-21T13:16:28.000Z</time>
      </trkpt>
      <trkpt lat="48.09292" lon="6.83746">
        <ele>825.93</ele>
        <time>2020-12-21T13:16:38.000Z</time>
      </trkpt>
      <trkpt lat="48.09291" lon="6.83752">
        <ele>828.01</ele>
        <time>2020-12-21T13:16:48.000Z</time>
      </trkpt>
      <trkpt lat="48.09288" lon="6.83756">
        <ele>828.01</ele>
        <time>2020-12-21T13:16:58.000Z</time>
      </trkpt>
      <trkpt lat="48.09285" lon="6.83761">
        <ele>829.01</ele>
        <time>2020-12-21T13:17:08.000Z</time>
      </trkpt>
      <trkpt lat="48.09285" lon="6.83773">
        <ele>830.01</ele>
        <time>2020-12-21T13:17:18.000Z</time>
      </trkpt>
      <trkpt lat="48.09282" lon="6.83783">
        <ele>830.01</ele>
        <time>2020-12-21T13:17:28.000Z</time>
      </trkpt>
      <trkpt lat="48.09281" lon="6.83789">
        <ele>831.01</ele>
        <time>2020-12-21T13:17:37.248Z</time>
      </trkpt>
      <trkpt lat="48.09281" lon="6.83803">
        <ele>832.01</ele>
        <time>2020-12-21T13:17:47.000Z</time>
      </trkpt>
      <trkpt lat="48.09281" lon="6.83816">
        <ele>832.01</ele>
        <time>2020-12-21T13:17:57.000Z</time>
      </trkpt>
      <trkpt lat="48.09279" lon="6.83822">
        <ele>833</ele>
        <time>2020-12-21T13:18:06.078Z</time>
      </trkpt>
      <trkpt lat="48.09278" lon="6.83832">
        <ele>833.01</ele>
        <time>2020-12-21T13:18:15.355Z</time>
      </trkpt>
      <trkpt lat="48.09279" lon="6.83842">
        <ele>828.02</ele>
        <time>2020-12-21T13:18:26.000Z</time>
      </trkpt>
      <trkpt lat="48.09279" lon="6.83862">
        <ele>829.76</ele>
        <time>2020-12-21T13:18:36.000Z</time>
      </trkpt>
      <trkpt lat="48.09275" lon="6.83882">
        <ele>830.01</ele>
        <time>2020-12-21T13:18:45.449Z</time>
      </trkpt>
      <trkpt lat="48.09276" lon="6.83902">
        <ele>829.28</ele>
        <time>2020-12-21T13:18:55.000Z</time>
      </trkpt>
      <trkpt lat="48.09269" lon="6.83931">
        <ele>831.07</ele>
        <time>2020-12-21T13:19:05.000Z</time>
      </trkpt>
      <trkpt lat="48.09263" lon="6.83947">
        <ele>834.01</ele>
        <time>2020-12-21T13:19:15.000Z</time>
      </trkpt>
      <trkpt lat="48.09263" lon="6.83951">
        <ele>835.01</ele>
        <time>2020-12-21T13:19:25.063Z</time>
      </trkpt>
      <trkpt lat="48.09262" lon="6.83958">
        <ele>836.95</ele>
        <time>2020-12-21T13:19:35.000Z</time>
      </trkpt>
      <trkpt lat="48.09261" lon="6.83979">
        <ele>825.54</ele>
        <time>2020-12-21T13:19:45.109Z</time>
      </trkpt>
      <trkpt lat="48.09256" lon="6.84008">
        <ele>852.9</ele>
        <time>2020-12-21T13:19:56.000Z</time>
      </trkpt>
      <trkpt lat="48.09255" lon="6.84018">
        <ele>850.01</ele>
        <time>2020-12-21T13:20:06.000Z</time>
      </trkpt>
      <trkpt lat="48.09254" lon="6.84023">
        <ele>849</ele>
        <time>2020-12-21T13:20:17.000Z</time>
      </trkpt>
      <trkpt lat="48.09253" lon="6.84033">
        <ele>852</ele>
        <time>2020-12-21T13:20:27.000Z</time>
      </trkpt>
      <trkpt lat="48.09251" lon="6.84047">
        <ele>851.01</ele>
        <time>2020-12-21T13:20:37.000Z</time>
      </trkpt>
      <trkpt lat="48.09248" lon="6.8406">
        <ele>852.01</ele>
        <time>2020-12-21T13:20:47.000Z</time>
      </trkpt>
      <trkpt lat="48.09245" lon="6.84071">
        <ele>853</ele>
        <time>2020-12-21T13:20:57.000Z</time>
      </trkpt>
      <trkpt lat="48.09241" lon="6.8409">
        <ele>852.26</ele>
        <time>2020-12-21T13:21:07.000Z</time>
      </trkpt>
      <trkpt lat="48.09237" lon="6.84104">
        <ele>852.51</ele>
        <time>2020-12-21T13:21:16.377Z</time>
      </trkpt>
      <trkpt lat="48.09235" lon="6.84123">
        <ele>853.76</ele>
        <time>2020-12-21T13:21:26.000Z</time>
      </trkpt>
      <trkpt lat="48.09234" lon="6.84135">
        <ele>854.01</ele>
        <time>2020-12-21T13:21:36.000Z</time>
      </trkpt>
      <trkpt lat="48.09233" lon="6.84147">
        <ele>853.07</ele>
        <time>2020-12-21T13:21:45.755Z</time>
      </trkpt>
      <trkpt lat="48.09234" lon="6.84161">
        <ele>852.82</ele>
        <time>2020-12-21T13:21:55.000Z</time>
      </trkpt>
      <trkpt lat="48.09229" lon="6.84186">
        <ele>855.01</ele>
        <time>2020-12-21T13:22:04.427Z</time>
      </trkpt>
      <trkpt lat="48.0923" lon="6.84196">
        <ele>855.01</ele>
        <time>2020-12-21T13:22:14.000Z</time>
      </trkpt>
      <trkpt lat="48.09232" lon="6.84203">
        <ele>852.29</ele>
        <time>2020-12-21T13:22:23.159Z</time>
      </trkpt>
      <trkpt lat="48.09228" lon="6.84223">
        <ele>848.63</ele>
        <time>2020-12-21T13:22:33.000Z</time>
      </trkpt>
      <trkpt lat="48.09232" lon="6.84235">
        <ele>852.01</ele>
        <time>2020-12-21T13:22:43.000Z</time>
      </trkpt>
      <trkpt lat="48.09233" lon="6.8424">
        <ele>853.01</ele>
        <time>2020-12-21T13:22:53.000Z</time>
      </trkpt>
      <trkpt lat="48.09233" lon="6.84247">
        <ele>854.01</ele>
        <time>2020-12-21T13:23:02.327Z</time>
      </trkpt>
      <trkpt lat="48.09223" lon="6.84262">
        <ele>877.94</ele>
        <time>2020-12-21T13:23:12.000Z</time>
      </trkpt>
      <trkpt lat="48.09233" lon="6.84289">
        <ele>873.01</ele>
        <time>2020-12-21T13:23:22.000Z</time>
      </trkpt>
      <trkpt lat="48.09234" lon="6.84301">
        <ele>868.01</ele>
        <time>2020-12-21T13:23:32.000Z</time>
      </trkpt>
      <trkpt lat="48.09236" lon="6.84307">
        <ele>867.01</ele>
        <time>2020-12-21T13:23:41.578Z</time>
      </trkpt>
      <trkpt lat="48.09238" lon="6.84327">
        <ele>871.01</ele>
        <time>2020-12-21T13:23:52.000Z</time>
      </trkpt>
      <trkpt lat="48.09238" lon="6.84346">
        <ele>872.24</ele>
        <time>2020-12-21T13:24:01.579Z</time>
      </trkpt>
      <trkpt lat="48.09234" lon="6.84363">
        <ele>876.51</ele>
        <time>2020-12-21T13:24:10.909Z</time>
      </trkpt>
      <trkpt lat="48.09239" lon="6.8437">
        <ele>873.01</ele>
        <time>2020-12-21T13:24:20.441Z</time>
      </trkpt>
      <trkpt lat="48.09242" lon="6.84376">
        <ele>868.88</ele>
        <time>2020-12-21T13:24:30.000Z</time>
      </trkpt>
      <trkpt lat="48.09247" lon="6.84392">
        <ele>869.01</ele>
        <time>2020-12-21T13:24:39.100Z</time>
      </trkpt>
      <trkpt lat="48.09249" lon="6.84404">
        <ele>870.01</ele>
        <time>2020-12-21T13:24:48.509Z</time>
      </trkpt>
      <trkpt lat="48.09251" lon="6.84406">
        <ele>870.01</ele>
        <time>2020-12-21T13:24:58.000Z</time>
      </trkpt>
      <trkpt lat="48.0926" lon="6.84425">
        <ele>866.27</ele>
        <time>2020-12-21T13:25:07.573Z</time>
      </trkpt>
      <trkpt lat="48.09263" lon="6.84432">
        <ele>884.27</ele>
        <time>2020-12-21T13:25:17.000Z</time>
      </trkpt>
      <trkpt lat="48.0927" lon="6.84434">
        <ele>887</ele>
        <time>2020-12-21T13:25:27.000Z</time>
      </trkpt>
      <trkpt lat="48.09269" lon="6.84434">
        <ele>885.51</ele>
        <time>2020-12-21T13:25:58.000Z</time>
      </trkpt>
      <trkpt lat="48.09265" lon="6.84435">
        <ele>884.01</ele>
        <time>2020-12-21T13:26:08.000Z</time>
      </trkpt>
      <trkpt lat="48.09263" lon="6.84436">
        <ele>883.01</ele>
        <time>2020-12-21T13:26:18.000Z</time>
      </trkpt>
      <trkpt lat="48.09264" lon="6.84435">
        <ele>883.01</ele>
        <time>2020-12-21T13:26:28.000Z</time>
      </trkpt>
      <trkpt lat="48.09263" lon="6.84435">
        <ele>883.01</ele>
        <time>2020-12-21T13:26:38.000Z</time>
      </trkpt>
      <trkpt lat="48.09265" lon="6.84438">
        <ele>883.07</ele>
        <time>2020-12-21T13:26:48.000Z</time>
      </trkpt>
      <trkpt lat="48.09267" lon="6.8444">
        <ele>884.01</ele>
        <time>2020-12-21T13:26:58.000Z</time>
      </trkpt>
      <trkpt lat="48.09263" lon="6.84438">
        <ele>880.07</ele>
        <time>2020-12-21T13:27:08.000Z</time>
      </trkpt>
      <trkpt lat="48.09261" lon="6.84445">
        <ele>879.99</ele>
        <time>2020-12-21T13:27:17.721Z</time>
      </trkpt>
      <trkpt lat="48.09259" lon="6.84451">
        <ele>880.02</ele>
        <time>2020-12-21T13:27:27.170Z</time>
      </trkpt>
      <trkpt lat="48.09263" lon="6.84454">
        <ele>879.26</ele>
        <time>2020-12-21T13:27:37.000Z</time>
      </trkpt>
      <trkpt lat="48.09267" lon="6.84461">
        <ele>878.26</ele>
        <time>2020-12-21T13:27:47.000Z</time>
      </trkpt>
      <trkpt lat="48.09278" lon="6.84477">
        <ele>878.01</ele>
        <time>2020-12-21T13:27:56.496Z</time>
      </trkpt>
      <trkpt lat="48.0928" lon="6.84484">
        <ele>878.99</ele>
        <time>2020-12-21T13:28:07.000Z</time>
      </trkpt>
      <trkpt lat="48.09281" lon="6.84489">
        <ele>880.01</ele>
        <time>2020-12-21T13:28:17.000Z</time>
      </trkpt>
      <trkpt lat="48.09281" lon="6.84494">
        <ele>881</ele>
        <time>2020-12-21T13:28:27.000Z</time>
      </trkpt>
      <trkpt lat="48.09283" lon="6.84513">
        <ele>893.52</ele>
        <time>2020-12-21T13:28:37.000Z</time>
      </trkpt>
      <trkpt lat="48.09292" lon="6.84538">
        <ele>891.01</ele>
        <time>2020-12-21T13:28:46.745Z</time>
      </trkpt>
      <trkpt lat="48.09293" lon="6.84544">
        <ele>884.27</ele>
        <time>2020-12-21T13:28:57.000Z</time>
      </trkpt>
      <trkpt lat="48.09301" lon="6.84555">
        <ele>882.01</ele>
        <time>2020-12-21T13:29:06.309Z</time>
      </trkpt>
      <trkpt lat="48.09305" lon="6.84562">
        <ele>878.35</ele>
        <time>2020-12-21T13:29:15.364Z</time>
      </trkpt>
      <trkpt lat="48.09309" lon="6.84578">
        <ele>881.01</ele>
        <time>2020-12-21T13:29:25.000Z</time>
      </trkpt>
      <trkpt lat="48.0931" lon="6.84579">
        <ele>881.01</ele>
        <time>2020-12-21T13:29:35.000Z</time>
      </trkpt>
      <trkpt lat="48.09314" lon="6.8459">
        <ele>881.01</ele>
        <time>2020-12-21T13:29:45.000Z</time>
      </trkpt>
      <trkpt lat="48.09323" lon="6.84607">
        <ele>882.76</ele>
        <time>2020-12-21T13:29:55.000Z</time>
      </trkpt>
      <trkpt lat="48.09337" lon="6.84622">
        <ele>883</ele>
        <time>2020-12-21T13:30:04.395Z</time>
      </trkpt>
      <trkpt lat="48.09345" lon="6.84631">
        <ele>884.95</ele>
        <time>2020-12-21T13:30:15.000Z</time>
      </trkpt>
      <trkpt lat="48.09348" lon="6.84645">
        <ele>886.01</ele>
        <time>2020-12-21T13:30:25.000Z</time>
      </trkpt>
      <trkpt lat="48.09349" lon="6.84672">
        <ele>888.76</ele>
        <time>2020-12-21T13:30:35.101Z</time>
      </trkpt>
      <trkpt lat="48.09353" lon="6.84684">
        <ele>888.01</ele>
        <time>2020-12-21T13:30:45.000Z</time>
      </trkpt>
      <trkpt lat="48.09362" lon="6.84697">
        <ele>889.02</ele>
        <time>2020-12-21T13:30:55.000Z</time>
      </trkpt>
      <trkpt lat="48.09371" lon="6.8471">
        <ele>891.01</ele>
        <time>2020-12-21T13:31:04.945Z</time>
      </trkpt>
      <trkpt lat="48.09375" lon="6.84721">
        <ele>893</ele>
        <time>2020-12-21T13:31:14.000Z</time>
      </trkpt>
      <trkpt lat="48.09376" lon="6.8474">
        <ele>891.03</ele>
        <time>2020-12-21T13:31:24.000Z</time>
      </trkpt>
      <trkpt lat="48.09377" lon="6.8477">
        <ele>893.01</ele>
        <time>2020-12-21T13:31:33.766Z</time>
      </trkpt>
      <trkpt lat="48.09379" lon="6.84769">
        <ele>893.01</ele>
        <time>2020-12-21T13:31:43.000Z</time>
      </trkpt>
      <trkpt lat="48.09384" lon="6.84777">
        <ele>893.01</ele>
        <time>2020-12-21T13:31:53.000Z</time>
      </trkpt>
      <trkpt lat="48.09396" lon="6.848">
        <ele>893.01</ele>
        <time>2020-12-21T13:32:03.000Z</time>
      </trkpt>
      <trkpt lat="48.094" lon="6.84822">
        <ele>895.01</ele>
        <time>2020-12-21T13:32:13.000Z</time>
      </trkpt>
      <trkpt lat="48.09402" lon="6.84824">
        <ele>895.01</ele>
        <time>2020-12-21T13:32:22.461Z</time>
      </trkpt>
      <trkpt lat="48.09405" lon="6.84827">
        <ele>894.26</ele>
        <time>2020-12-21T13:32:31.671Z</time>
      </trkpt>
      <trkpt lat="48.09414" lon="6.84851">
        <ele>886.31</ele>
        <time>2020-12-21T13:32:41.000Z</time>
      </trkpt>
      <trkpt lat="48.09425" lon="6.84877">
        <ele>890.76</ele>
        <time>2020-12-21T13:32:51.000Z</time>
      </trkpt>
      <trkpt lat="48.09429" lon="6.84889">
        <ele>901.26</ele>
        <time>2020-12-21T13:33:01.000Z</time>
      </trkpt>
      <trkpt lat="48.09415" lon="6.84906">
        <ele>902.99</ele>
        <time>2020-12-21T13:33:11.000Z</time>
      </trkpt>
      <trkpt lat="48.0941" lon="6.8491">
        <ele>901.26</ele>
        <time>2020-12-21T13:33:20.066Z</time>
      </trkpt>
      <trkpt lat="48.09401" lon="6.84922">
        <ele>902.24</ele>
        <time>2020-12-21T13:33:30.000Z</time>
      </trkpt>
      <trkpt lat="48.0939" lon="6.84937">
        <ele>913.02</ele>
        <time>2020-12-21T13:33:40.000Z</time>
      </trkpt>
      <trkpt lat="48.09374" lon="6.84948">
        <ele>910.08</ele>
        <time>2020-12-21T13:33:49.033Z</time>
      </trkpt>
      <trkpt lat="48.09368" lon="6.84956">
        <ele>903.51</ele>
        <time>2020-12-21T13:33:59.000Z</time>
      </trkpt>
      <trkpt lat="48.09358" lon="6.8496">
        <ele>892.74</ele>
        <time>2020-12-21T13:34:09.000Z</time>
      </trkpt>
      <trkpt lat="48.09352" lon="6.84976">
        <ele>897.01</ele>
        <time>2020-12-21T13:34:19.000Z</time>
      </trkpt>
      <trkpt lat="48.09349" lon="6.84987">
        <ele>897.99</ele>
        <time>2020-12-21T13:34:29.000Z</time>
      </trkpt>
      <trkpt lat="48.09342" lon="6.84998">
        <ele>897.04</ele>
        <time>2020-12-21T13:34:39.170Z</time>
      </trkpt>
      <trkpt lat="48.09329" lon="6.8502">
        <ele>898.75</ele>
        <time>2020-12-21T13:34:48.816Z</time>
      </trkpt>
      <trkpt lat="48.09315" lon="6.85034">
        <ele>897.26</ele>
        <time>2020-12-21T13:34:58.000Z</time>
      </trkpt>
      <trkpt lat="48.09306" lon="6.85047">
        <ele>894.01</ele>
        <time>2020-12-21T13:35:08.000Z</time>
      </trkpt>
      <trkpt lat="48.09297" lon="6.85058">
        <ele>895</ele>
        <time>2020-12-21T13:35:19.000Z</time>
      </trkpt>
      <trkpt lat="48.09286" lon="6.85074">
        <ele>895.76</ele>
        <time>2020-12-21T13:35:29.000Z</time>
      </trkpt>
      <trkpt lat="48.09276" lon="6.85084">
        <ele>896.01</ele>
        <time>2020-12-21T13:35:39.000Z</time>
      </trkpt>
      <trkpt lat="48.09273" lon="6.85088">
        <ele>896.01</ele>
        <time>2020-12-21T13:35:49.000Z</time>
      </trkpt>
      <trkpt lat="48.09268" lon="6.85094">
        <ele>895.01</ele>
        <time>2020-12-21T13:36:00.000Z</time>
      </trkpt>
      <trkpt lat="48.09251" lon="6.85109">
        <ele>895</ele>
        <time>2020-12-21T13:36:10.000Z</time>
      </trkpt>
      <trkpt lat="48.09238" lon="6.8512">
        <ele>895.76</ele>
        <time>2020-12-21T13:36:19.342Z</time>
      </trkpt>
      <trkpt lat="48.09237" lon="6.85121">
        <ele>896</ele>
        <time>2020-12-21T13:36:30.000Z</time>
      </trkpt>
      <trkpt lat="48.09236" lon="6.85119">
        <ele>896</ele>
        <time>2020-12-21T13:37:05.496Z</time>
      </trkpt>
      <trkpt lat="48.09227" lon="6.85128">
        <ele>895.02</ele>
        <time>2020-12-21T13:37:15.000Z</time>
      </trkpt>
      <trkpt lat="48.09222" lon="6.85143">
        <ele>895</ele>
        <time>2020-12-21T13:37:25.000Z</time>
      </trkpt>
      <trkpt lat="48.0921" lon="6.85155">
        <ele>894</ele>
        <time>2020-12-21T13:37:34.902Z</time>
      </trkpt>
      <trkpt lat="48.09199" lon="6.85161">
        <ele>894</ele>
        <time>2020-12-21T13:37:44.000Z</time>
      </trkpt>
      <trkpt lat="48.09191" lon="6.8517">
        <ele>894.94</ele>
        <time>2020-12-21T13:37:54.000Z</time>
      </trkpt>
      <trkpt lat="48.09177" lon="6.8518">
        <ele>895</ele>
        <time>2020-12-21T13:38:04.000Z</time>
      </trkpt>
      <trkpt lat="48.09169" lon="6.85193">
        <ele>893.94</ele>
        <time>2020-12-21T13:38:13.419Z</time>
      </trkpt>
      <trkpt lat="48.09159" lon="6.85203">
        <ele>895</ele>
        <time>2020-12-21T13:38:23.329Z</time>
      </trkpt>
      <trkpt lat="48.09148" lon="6.85212">
        <ele>895</ele>
        <time>2020-12-21T13:38:33.000Z</time>
      </trkpt>
      <trkpt lat="48.09138" lon="6.85218">
        <ele>896</ele>
        <time>2020-12-21T13:38:43.000Z</time>
      </trkpt>
      <trkpt lat="48.09127" lon="6.85232">
        <ele>895.99</ele>
        <time>2020-12-21T13:38:53.000Z</time>
      </trkpt>
      <trkpt lat="48.09117" lon="6.85245">
        <ele>890.59</ele>
        <time>2020-12-21T13:39:03.000Z</time>
      </trkpt>
      <trkpt lat="48.09106" lon="6.85253">
        <ele>899</ele>
        <time>2020-12-21T13:39:13.000Z</time>
      </trkpt>
      <trkpt lat="48.09103" lon="6.85253">
        <ele>896.27</ele>
        <time>2020-12-21T13:39:22.615Z</time>
      </trkpt>
      <trkpt lat="48.09089" lon="6.85264">
        <ele>895.24</ele>
        <time>2020-12-21T13:39:32.000Z</time>
      </trkpt>
      <trkpt lat="48.09079" lon="6.85277">
        <ele>894.25</ele>
        <time>2020-12-21T13:39:42.000Z</time>
      </trkpt>
      <trkpt lat="48.09062" lon="6.85286">
        <ele>895.25</ele>
        <time>2020-12-21T13:39:51.658Z</time>
      </trkpt>
      <trkpt lat="48.09056" lon="6.85296">
        <ele>895</ele>
        <time>2020-12-21T13:40:01.000Z</time>
      </trkpt>
      <trkpt lat="48.09052" lon="6.85303">
        <ele>895</ele>
        <time>2020-12-21T13:40:11.000Z</time>
      </trkpt>
      <trkpt lat="48.09043" lon="6.85313">
        <ele>895</ele>
        <time>2020-12-21T13:40:21.000Z</time>
      </trkpt>
      <trkpt lat="48.09028" lon="6.85331">
        <ele>895</ele>
        <time>2020-12-21T13:40:30.225Z</time>
      </trkpt>
      <trkpt lat="48.0902" lon="6.85346">
        <ele>895</ele>
        <time>2020-12-21T13:40:39.990Z</time>
      </trkpt>
      <trkpt lat="48.09013" lon="6.85352">
        <ele>895</ele>
        <time>2020-12-21T13:40:49.000Z</time>
      </trkpt>
      <trkpt lat="48.09003" lon="6.85359">
        <ele>894</ele>
        <time>2020-12-21T13:40:59.000Z</time>
      </trkpt>
      <trkpt lat="48.08994" lon="6.85365">
        <ele>894</ele>
        <time>2020-12-21T13:41:08.200Z</time>
      </trkpt>
      <trkpt lat="48.08985" lon="6.85374">
        <ele>893</ele>
        <time>2020-12-21T13:41:19.000Z</time>
      </trkpt>
      <trkpt lat="48.08976" lon="6.85383">
        <ele>890.07</ele>
        <time>2020-12-21T13:41:29.000Z</time>
      </trkpt>
      <trkpt lat="48.08964" lon="6.85394">
        <ele>884.74</ele>
        <time>2020-12-21T13:41:40.000Z</time>
      </trkpt>
      <trkpt lat="48.08949" lon="6.85407">
        <ele>885</ele>
        <time>2020-12-21T13:41:49.435Z</time>
      </trkpt>
      <trkpt lat="48.08947" lon="6.85414">
        <ele>887</ele>
        <time>2020-12-21T13:41:59.000Z</time>
      </trkpt>
      <trkpt lat="48.08945" lon="6.85414">
        <ele>887</ele>
        <time>2020-12-21T13:42:09.000Z</time>
      </trkpt>
      <trkpt lat="48.08937" lon="6.85422">
        <ele>880.27</ele>
        <time>2020-12-21T13:42:18.575Z</time>
      </trkpt>
      <trkpt lat="48.08927" lon="6.85446">
        <ele>881</ele>
        <time>2020-12-21T13:42:28.000Z</time>
      </trkpt>
      <trkpt lat="48.0892" lon="6.85451">
        <ele>883.75</ele>
        <time>2020-12-21T13:42:37.029Z</time>
      </trkpt>
      <trkpt lat="48.08904" lon="6.85457">
        <ele>886</ele>
        <time>2020-12-21T13:42:47.000Z</time>
      </trkpt>
      <trkpt lat="48.08896" lon="6.8547">
        <ele>887</ele>
        <time>2020-12-21T13:42:57.000Z</time>
      </trkpt>
      <trkpt lat="48.08892" lon="6.85481">
        <ele>888</ele>
        <time>2020-12-21T13:43:07.000Z</time>
      </trkpt>
      <trkpt lat="48.08887" lon="6.85492">
        <ele>881</ele>
        <time>2020-12-21T13:43:16.069Z</time>
      </trkpt>
      <trkpt lat="48.08872" lon="6.85502">
        <ele>880.93</ele>
        <time>2020-12-21T13:43:26.000Z</time>
      </trkpt>
      <trkpt lat="48.0886" lon="6.85514">
        <ele>883</ele>
        <time>2020-12-21T13:43:36.000Z</time>
      </trkpt>
      <trkpt lat="48.08845" lon="6.85521">
        <ele>877.44</ele>
        <time>2020-12-21T13:43:46.000Z</time>
      </trkpt>
      <trkpt lat="48.08829" lon="6.85515">
        <ele>877.73</ele>
        <time>2020-12-21T13:43:56.000Z</time>
      </trkpt>
      <trkpt lat="48.08817" lon="6.8552">
        <ele>881</ele>
        <time>2020-12-21T13:44:05.291Z</time>
      </trkpt>
      <trkpt lat="48.08811" lon="6.85523">
        <ele>883.73</ele>
        <time>2020-12-21T13:44:14.650Z</time>
      </trkpt>
      <trkpt lat="48.088" lon="6.85512">
        <ele>878.03</ele>
        <time>2020-12-21T13:44:25.000Z</time>
      </trkpt>
      <trkpt lat="48.0878" lon="6.85496">
        <ele>885</ele>
        <time>2020-12-21T13:44:35.000Z</time>
      </trkpt>
      <trkpt lat="48.08777" lon="6.85493">
        <ele>886</ele>
        <time>2020-12-21T13:44:45.000Z</time>
      </trkpt>
      <trkpt lat="48.08776" lon="6.85491">
        <ele>876.82</ele>
        <time>2020-12-21T13:44:58.000Z</time>
      </trkpt>
      <trkpt lat="48.08754" lon="6.85469">
        <ele>882.75</ele>
        <time>2020-12-21T13:45:07.113Z</time>
      </trkpt>
      <trkpt lat="48.0874" lon="6.85454">
        <ele>879.06</ele>
        <time>2020-12-21T13:45:16.596Z</time>
      </trkpt>
      <trkpt lat="48.0873" lon="6.85461">
        <ele>884.73</ele>
        <time>2020-12-21T13:45:27.000Z</time>
      </trkpt>
      <trkpt lat="48.08718" lon="6.85454">
        <ele>888.75</ele>
        <time>2020-12-21T13:45:36.650Z</time>
      </trkpt>
      <trkpt lat="48.08709" lon="6.85448">
        <ele>890</ele>
        <time>2020-12-21T13:45:46.000Z</time>
      </trkpt>
      <trkpt lat="48.08708" lon="6.85448">
        <ele>890</ele>
        <time>2020-12-21T13:45:58.000Z</time>
      </trkpt>
      <trkpt lat="48.08707" lon="6.85449">
        <ele>889.06</ele>
        <time>2020-12-21T13:46:09.000Z</time>
      </trkpt>
      <trkpt lat="48.08688" lon="6.85449">
        <ele>886.06</ele>
        <time>2020-12-21T13:46:19.000Z</time>
      </trkpt>
      <trkpt lat="48.08672" lon="6.85446">
        <ele>887.75</ele>
        <time>2020-12-21T13:46:29.000Z</time>
      </trkpt>
      <trkpt lat="48.08652" lon="6.85445">
        <ele>889.25</ele>
        <time>2020-12-21T13:46:38.751Z</time>
      </trkpt>
      <trkpt lat="48.08639" lon="6.85448">
        <ele>889</ele>
        <time>2020-12-21T13:46:47.847Z</time>
      </trkpt>
      <trkpt lat="48.08627" lon="6.8545">
        <ele>888.05</ele>
        <time>2020-12-21T13:46:57.083Z</time>
      </trkpt>
      <trkpt lat="48.08616" lon="6.85453">
        <ele>888</ele>
        <time>2020-12-21T13:47:06.323Z</time>
      </trkpt>
      <trkpt lat="48.08605" lon="6.85459">
        <ele>886</ele>
        <time>2020-12-21T13:47:16.277Z</time>
      </trkpt>
      <trkpt lat="48.08597" lon="6.85461">
        <ele>883.77</ele>
        <time>2020-12-21T13:47:26.000Z</time>
      </trkpt>
      <trkpt lat="48.08587" lon="6.85467">
        <ele>885</ele>
        <time>2020-12-21T13:47:36.000Z</time>
      </trkpt>
      <trkpt lat="48.08574" lon="6.85473">
        <ele>885.75</ele>
        <time>2020-12-21T13:47:46.000Z</time>
      </trkpt>
      <trkpt lat="48.08566" lon="6.8548">
        <ele>885</ele>
        <time>2020-12-21T13:47:55.580Z</time>
      </trkpt>
      <trkpt lat="48.08557" lon="6.85491">
        <ele>883</ele>
        <time>2020-12-21T13:48:05.488Z</time>
      </trkpt>
      <trkpt lat="48.08544" lon="6.85504">
        <ele>887</ele>
        <time>2020-12-21T13:48:14.854Z</time>
      </trkpt>
      <trkpt lat="48.08531" lon="6.85509">
        <ele>889.98</ele>
        <time>2020-12-21T13:48:25.000Z</time>
      </trkpt>
      <trkpt lat="48.08522" lon="6.85504">
        <ele>891.99</ele>
        <time>2020-12-21T13:48:34.644Z</time>
      </trkpt>
      <trkpt lat="48.08511" lon="6.85505">
        <ele>891</ele>
        <time>2020-12-21T13:48:44.000Z</time>
      </trkpt>
      <trkpt lat="48.08501" lon="6.85517">
        <ele>893.75</ele>
        <time>2020-12-21T13:48:54.000Z</time>
      </trkpt>
      <trkpt lat="48.08488" lon="6.85524">
        <ele>894.94</ele>
        <time>2020-12-21T13:49:04.000Z</time>
      </trkpt>
    </trkseg>
  </trk>
</gpx>